<?xml version="1.0" encoding="UTF-8" standalone="no" ?>
<gpx xmlns="http://www.topografix.com/GPX/1/1" xmlns:xsi="http://www.w3.org/2001/XMLSchema-instance" xsi:schemaLocation="http://www.topografix.com/GPX/1/1 http://www.topografix.com/GPX/1/1/gpx.xsd" version="1.1" creator="VisuGPX - https://www.visugpx.com">
  <metadata>
    <name>bondues_45KM</name>
  </metadata>
  <trk>
    <name><![CDATA[bondues_45KM_1]]></name>
    <trkseg>
      <trkpt lat="50.71857" lon="3.08218">
        <ele>21.7</ele>
      </trkpt>
      <trkpt lat="50.71768" lon="3.08328">
        <ele>21.8</ele>
      </trkpt>
      <trkpt lat="50.71654" lon="3.08396">
        <ele>22.8</ele>
      </trkpt>
      <trkpt lat="50.71579" lon="3.08462">
        <ele>22</ele>
      </trkpt>
      <trkpt lat="50.7144" lon="3.0857">
        <ele>23</ele>
      </trkpt>
      <trkpt lat="50.71538" lon="3.08751">
        <ele>23</ele>
      </trkpt>
      <trkpt lat="50.71589" lon="3.08754">
        <ele>23.1</ele>
      </trkpt>
      <trkpt lat="50.71733" lon="3.08949">
        <ele>29</ele>
      </trkpt>
      <trkpt lat="50.71821" lon="3.08857">
        <ele>28.6</ele>
      </trkpt>
      <trkpt lat="50.71855" lon="3.08783">
        <ele>26.7</ele>
      </trkpt>
      <trkpt lat="50.71913" lon="3.08744">
        <ele>25.9</ele>
      </trkpt>
      <trkpt lat="50.71957" lon="3.08756">
        <ele>28.1</ele>
      </trkpt>
      <trkpt lat="50.71988" lon="3.08885">
        <ele>31.4</ele>
      </trkpt>
      <trkpt lat="50.71984" lon="3.09098">
        <ele>33.2</ele>
      </trkpt>
      <trkpt lat="50.71991" lon="3.09258">
        <ele>36.2</ele>
      </trkpt>
      <trkpt lat="50.7201" lon="3.09418">
        <ele>38.1</ele>
      </trkpt>
      <trkpt lat="50.72035" lon="3.09475">
        <ele>38.5</ele>
      </trkpt>
      <trkpt lat="50.72066" lon="3.09495">
        <ele>38.2</ele>
      </trkpt>
      <trkpt lat="50.72076" lon="3.09496">
        <ele>38.1</ele>
      </trkpt>
      <trkpt lat="50.72101" lon="3.0951">
        <ele>37.8</ele>
      </trkpt>
      <trkpt lat="50.72139" lon="3.09513">
        <ele>37.3</ele>
      </trkpt>
      <trkpt lat="50.72214" lon="3.09468">
        <ele>36.6</ele>
      </trkpt>
      <trkpt lat="50.72291" lon="3.09436">
        <ele>34.4</ele>
      </trkpt>
      <trkpt lat="50.72338" lon="3.09395">
        <ele>32.8</ele>
      </trkpt>
      <trkpt lat="50.72363" lon="3.09376">
        <ele>31.2</ele>
      </trkpt>
      <trkpt lat="50.72399" lon="3.0945">
        <ele>30.4</ele>
      </trkpt>
      <trkpt lat="50.72449" lon="3.09528">
        <ele>31.6</ele>
      </trkpt>
      <trkpt lat="50.72499" lon="3.09615">
        <ele>31.2</ele>
      </trkpt>
      <trkpt lat="50.7248" lon="3.09682">
        <ele>30.6</ele>
      </trkpt>
      <trkpt lat="50.7248" lon="3.09732">
        <ele>31.1</ele>
      </trkpt>
      <trkpt lat="50.72493" lon="3.09754">
        <ele>31.1</ele>
      </trkpt>
      <trkpt lat="50.72565" lon="3.0995">
        <ele>35.3</ele>
      </trkpt>
      <trkpt lat="50.72697" lon="3.09826">
        <ele>36.1</ele>
      </trkpt>
      <trkpt lat="50.72838" lon="3.09551">
        <ele>36.1</ele>
        <time>2020-12-06T08:00:11Z</time>
      </trkpt>
      <trkpt lat="50.72838" lon="3.09551">
        <ele>36.1</ele>
        <time>2020-12-06T08:00:11Z</time>
      </trkpt>
      <trkpt lat="50.72843" lon="3.09592">
        <ele>31.8</ele>
        <time>2020-12-06T08:00:16Z</time>
      </trkpt>
      <trkpt lat="50.72871" lon="3.09672">
        <ele>31.2</ele>
        <time>2020-12-06T08:00:27Z</time>
      </trkpt>
      <trkpt lat="50.72893" lon="3.09756">
        <ele>31.6</ele>
        <time>2020-12-06T08:00:39Z</time>
      </trkpt>
      <trkpt lat="50.72894" lon="3.09763">
        <ele>31.8</ele>
        <time>2020-12-06T08:00:40Z</time>
      </trkpt>
      <trkpt lat="50.7291" lon="3.09836">
        <ele>32.6</ele>
        <time>2020-12-06T08:00:50Z</time>
      </trkpt>
      <trkpt lat="50.72914" lon="3.09851">
        <ele>32.8</ele>
        <time>2020-12-06T08:00:52Z</time>
      </trkpt>
      <trkpt lat="50.7293" lon="3.09877">
        <ele>32.8</ele>
        <time>2020-12-06T08:00:56Z</time>
      </trkpt>
      <trkpt lat="50.72973" lon="3.0994">
        <ele>32.2</ele>
        <time>2020-12-06T08:01:06Z</time>
      </trkpt>
      <trkpt lat="50.72987" lon="3.0997">
        <ele>31.6</ele>
        <time>2020-12-06T08:01:10Z</time>
      </trkpt>
      <trkpt lat="50.73007" lon="3.10024">
        <ele>30.6</ele>
        <time>2020-12-06T08:01:17Z</time>
      </trkpt>
      <trkpt lat="50.73032" lon="3.10071">
        <ele>31</ele>
        <time>2020-12-06T08:01:24Z</time>
      </trkpt>
      <trkpt lat="50.73079" lon="3.10124">
        <ele>30.8</ele>
        <time>2020-12-06T08:01:34Z</time>
      </trkpt>
      <trkpt lat="50.73121" lon="3.10183">
        <ele>30.8</ele>
        <time>2020-12-06T08:01:44Z</time>
      </trkpt>
      <trkpt lat="50.73149" lon="3.10216">
        <ele>31</ele>
        <time>2020-12-06T08:01:50Z</time>
      </trkpt>
      <trkpt lat="50.73183" lon="3.10234">
        <ele>31</ele>
        <time>2020-12-06T08:01:56Z</time>
      </trkpt>
      <trkpt lat="50.73224" lon="3.10242">
        <ele>30.6</ele>
        <time>2020-12-06T08:02:02Z</time>
      </trkpt>
      <trkpt lat="50.73251" lon="3.10233">
        <ele>29.6</ele>
        <time>2020-12-06T08:02:06Z</time>
      </trkpt>
      <trkpt lat="50.73295" lon="3.10209">
        <ele>28.4</ele>
        <time>2020-12-06T08:02:12Z</time>
      </trkpt>
      <trkpt lat="50.73301" lon="3.10204">
        <ele>28.2</ele>
        <time>2020-12-06T08:02:13Z</time>
      </trkpt>
      <trkpt lat="50.73344" lon="3.10153">
        <ele>27.4</ele>
        <time>2020-12-06T08:02:22Z</time>
      </trkpt>
      <trkpt lat="50.73348" lon="3.10147">
        <ele>27.4</ele>
        <time>2020-12-06T08:02:23Z</time>
      </trkpt>
      <trkpt lat="50.73382" lon="3.10079">
        <ele>27.2</ele>
        <time>2020-12-06T08:02:33Z</time>
      </trkpt>
      <trkpt lat="50.73413" lon="3.10002">
        <ele>27.4</ele>
        <time>2020-12-06T08:02:44Z</time>
      </trkpt>
      <trkpt lat="50.73445" lon="3.0993">
        <ele>27.6</ele>
        <time>2020-12-06T08:02:58Z</time>
      </trkpt>
      <trkpt lat="50.73468" lon="3.09899">
        <ele>28</ele>
        <time>2020-12-06T08:03:06Z</time>
      </trkpt>
      <trkpt lat="50.73491" lon="3.09868">
        <ele>28</ele>
        <time>2020-12-06T08:03:13Z</time>
      </trkpt>
      <trkpt lat="50.73501" lon="3.09853">
        <ele>28</ele>
        <time>2020-12-06T08:03:16Z</time>
      </trkpt>
      <trkpt lat="50.73511" lon="3.0984">
        <ele>28</ele>
        <time>2020-12-06T08:03:19Z</time>
      </trkpt>
      <trkpt lat="50.73537" lon="3.09845">
        <ele>28.4</ele>
        <time>2020-12-06T08:03:25Z</time>
      </trkpt>
      <trkpt lat="50.73554" lon="3.09861">
        <ele>28.4</ele>
        <time>2020-12-06T08:03:29Z</time>
      </trkpt>
      <trkpt lat="50.73569" lon="3.09869">
        <ele>28.2</ele>
        <time>2020-12-06T08:03:32Z</time>
      </trkpt>
      <trkpt lat="50.73586" lon="3.0989">
        <ele>28.2</ele>
        <time>2020-12-06T08:03:36Z</time>
      </trkpt>
      <trkpt lat="50.73627" lon="3.09945">
        <ele>27.6</ele>
        <time>2020-12-06T08:03:46Z</time>
      </trkpt>
      <trkpt lat="50.73641" lon="3.09958">
        <ele>27.4</ele>
        <time>2020-12-06T08:03:49Z</time>
      </trkpt>
      <trkpt lat="50.73661" lon="3.09939">
        <ele>27.6</ele>
        <time>2020-12-06T08:03:54Z</time>
      </trkpt>
      <trkpt lat="50.73682" lon="3.09909">
        <ele>32.8</ele>
      </trkpt>
      <trkpt lat="50.7369" lon="3.09921">
        <ele>32.7</ele>
      </trkpt>
      <trkpt lat="50.73696" lon="3.09929">
        <ele>27.6</ele>
        <time>2020-12-06T08:04:04Z</time>
      </trkpt>
      <trkpt lat="50.73732" lon="3.09996">
        <ele>27.2</ele>
        <time>2020-12-06T08:04:14Z</time>
      </trkpt>
      <trkpt lat="50.73743" lon="3.10019">
        <ele>26.6</ele>
        <time>2020-12-06T08:04:17Z</time>
      </trkpt>
      <trkpt lat="50.73778" lon="3.10087">
        <ele>25.8</ele>
        <time>2020-12-06T08:04:27Z</time>
      </trkpt>
      <trkpt lat="50.73814" lon="3.10153">
        <ele>25.8</ele>
        <time>2020-12-06T08:04:38Z</time>
      </trkpt>
      <trkpt lat="50.7384" lon="3.10207">
        <ele>25.8</ele>
        <time>2020-12-06T08:04:48Z</time>
      </trkpt>
      <trkpt lat="50.7383" lon="3.10225">
        <ele>25.6</ele>
        <time>2020-12-06T08:04:53Z</time>
      </trkpt>
      <trkpt lat="50.7379" lon="3.10292">
        <ele>25.2</ele>
        <time>2020-12-06T08:05:09Z</time>
      </trkpt>
      <trkpt lat="50.73775" lon="3.10314">
        <ele>24.8</ele>
        <time>2020-12-06T08:05:13Z</time>
      </trkpt>
      <trkpt lat="50.73733" lon="3.10368">
        <ele>24.2</ele>
        <time>2020-12-06T08:05:23Z</time>
      </trkpt>
      <trkpt lat="50.7371" lon="3.10398">
        <ele>24</ele>
        <time>2020-12-06T08:05:29Z</time>
      </trkpt>
      <trkpt lat="50.7371" lon="3.10422">
        <ele>24</ele>
        <time>2020-12-06T08:05:34Z</time>
      </trkpt>
      <trkpt lat="50.73724" lon="3.10449">
        <ele>24.2</ele>
        <time>2020-12-06T08:05:39Z</time>
      </trkpt>
      <trkpt lat="50.73765" lon="3.10506">
        <ele>24</ele>
        <time>2020-12-06T08:05:50Z</time>
      </trkpt>
      <trkpt lat="50.73769" lon="3.10512">
        <ele>23.8</ele>
        <time>2020-12-06T08:05:51Z</time>
      </trkpt>
      <trkpt lat="50.73779" lon="3.10522">
        <ele>23.4</ele>
        <time>2020-12-06T08:05:53Z</time>
      </trkpt>
      <trkpt lat="50.73794" lon="3.10532">
        <ele>22.8</ele>
        <time>2020-12-06T08:05:56Z</time>
      </trkpt>
      <trkpt lat="50.73845" lon="3.10563">
        <ele>22.2</ele>
        <time>2020-12-06T08:06:06Z</time>
      </trkpt>
      <trkpt lat="50.73849" lon="3.10567">
        <ele>22.2</ele>
        <time>2020-12-06T08:06:07Z</time>
      </trkpt>
      <trkpt lat="50.73845" lon="3.10594">
        <ele>22</ele>
        <time>2020-12-06T08:06:11Z</time>
      </trkpt>
      <trkpt lat="50.73816" lon="3.10667">
        <ele>21.8</ele>
        <time>2020-12-06T08:06:21Z</time>
      </trkpt>
      <trkpt lat="50.73786" lon="3.1074">
        <ele>21.8</ele>
        <time>2020-12-06T08:06:31Z</time>
      </trkpt>
      <trkpt lat="50.73753" lon="3.10811">
        <ele>22.8</ele>
        <time>2020-12-06T08:06:42Z</time>
      </trkpt>
      <trkpt lat="50.73739" lon="3.10845">
        <ele>23.8</ele>
        <time>2020-12-06T08:06:48Z</time>
      </trkpt>
      <trkpt lat="50.7375" lon="3.10866">
        <ele>24.6</ele>
        <time>2020-12-06T08:06:52Z</time>
      </trkpt>
      <trkpt lat="50.73786" lon="3.10933">
        <ele>24.8</ele>
        <time>2020-12-06T08:07:03Z</time>
      </trkpt>
      <trkpt lat="50.73796" lon="3.10951">
        <ele>24.8</ele>
        <time>2020-12-06T08:07:06Z</time>
      </trkpt>
      <trkpt lat="50.73814" lon="3.10963">
        <ele>24.6</ele>
        <time>2020-12-06T08:07:10Z</time>
      </trkpt>
      <trkpt lat="50.73824" lon="3.10969">
        <ele>24.6</ele>
        <time>2020-12-06T08:07:12Z</time>
      </trkpt>
      <trkpt lat="50.73871" lon="3.11016">
        <ele>23.6</ele>
        <time>2020-12-06T08:07:23Z</time>
      </trkpt>
      <trkpt lat="50.73917" lon="3.11066">
        <ele>22.8</ele>
        <time>2020-12-06T08:07:35Z</time>
      </trkpt>
      <trkpt lat="50.73951" lon="3.11134">
        <ele>22.8</ele>
        <time>2020-12-06T08:07:49Z</time>
      </trkpt>
      <trkpt lat="50.73943" lon="3.11145">
        <ele>23.2</ele>
        <time>2020-12-06T08:07:53Z</time>
      </trkpt>
      <trkpt lat="50.73931" lon="3.1116">
        <ele>24</ele>
        <time>2020-12-06T08:07:58Z</time>
      </trkpt>
      <trkpt lat="50.73907" lon="3.11188">
        <ele>24.8</ele>
        <time>2020-12-06T08:08:07Z</time>
      </trkpt>
      <trkpt lat="50.73896" lon="3.11228">
        <ele>25.2</ele>
        <time>2020-12-06T08:08:16Z</time>
      </trkpt>
      <trkpt lat="50.73923" lon="3.11291">
        <ele>26</ele>
        <time>2020-12-06T08:08:31Z</time>
      </trkpt>
      <trkpt lat="50.7393" lon="3.11297">
        <ele>26</ele>
        <time>2020-12-06T08:08:33Z</time>
      </trkpt>
      <trkpt lat="50.73977" lon="3.11328">
        <ele>25.6</ele>
        <time>2020-12-06T08:08:48Z</time>
      </trkpt>
      <trkpt lat="50.73996" lon="3.11327">
        <ele>25.2</ele>
        <time>2020-12-06T08:08:53Z</time>
      </trkpt>
      <trkpt lat="50.74012" lon="3.11339">
        <ele>24.8</ele>
        <time>2020-12-06T08:08:57Z</time>
      </trkpt>
      <trkpt lat="50.74025" lon="3.11367">
        <ele>24.4</ele>
        <time>2020-12-06T08:09:02Z</time>
      </trkpt>
      <trkpt lat="50.74033" lon="3.11385">
        <ele>24</ele>
        <time>2020-12-06T08:09:05Z</time>
      </trkpt>
      <trkpt lat="50.74077" lon="3.11443">
        <ele>23.6</ele>
        <time>2020-12-06T08:09:19Z</time>
      </trkpt>
      <trkpt lat="50.7409" lon="3.11453">
        <ele>23.4</ele>
        <time>2020-12-06T08:09:24Z</time>
      </trkpt>
      <trkpt lat="50.74093" lon="3.11451">
        <ele>23.4</ele>
        <time>2020-12-06T08:09:25Z</time>
      </trkpt>
      <trkpt lat="50.74101" lon="3.11436">
        <ele>23.2</ele>
        <time>2020-12-06T08:09:28Z</time>
      </trkpt>
      <trkpt lat="50.7413" lon="3.11372">
        <ele>22</ele>
        <time>2020-12-06T08:09:37Z</time>
      </trkpt>
      <trkpt lat="50.74144" lon="3.11346">
        <ele>20.8</ele>
        <time>2020-12-06T08:09:41Z</time>
      </trkpt>
      <trkpt lat="50.74186" lon="3.11289">
        <ele>19.8</ele>
        <time>2020-12-06T08:09:51Z</time>
      </trkpt>
      <trkpt lat="50.74195" lon="3.11279">
        <ele>19.8</ele>
        <time>2020-12-06T08:09:53Z</time>
      </trkpt>
      <trkpt lat="50.74244" lon="3.11226">
        <ele>18.8</ele>
        <time>2020-12-06T08:10:03Z</time>
      </trkpt>
      <trkpt lat="50.74248" lon="3.11221">
        <ele>18.6</ele>
        <time>2020-12-06T08:10:04Z</time>
      </trkpt>
      <trkpt lat="50.7429" lon="3.11164">
        <ele>18.2</ele>
        <time>2020-12-06T08:10:14Z</time>
      </trkpt>
      <trkpt lat="50.74327" lon="3.11098">
        <ele>18.4</ele>
        <time>2020-12-06T08:10:24Z</time>
      </trkpt>
      <trkpt lat="50.74362" lon="3.11032">
        <ele>18</ele>
        <time>2020-12-06T08:10:34Z</time>
      </trkpt>
      <trkpt lat="50.744" lon="3.10962">
        <ele>18</ele>
        <time>2020-12-06T08:10:45Z</time>
      </trkpt>
      <trkpt lat="50.74438" lon="3.10898">
        <ele>18</ele>
        <time>2020-12-06T08:10:56Z</time>
      </trkpt>
      <trkpt lat="50.74477" lon="3.10833">
        <ele>18</ele>
        <time>2020-12-06T08:11:07Z</time>
      </trkpt>
      <trkpt lat="50.74515" lon="3.10771">
        <ele>18.4</ele>
        <time>2020-12-06T08:11:18Z</time>
      </trkpt>
      <trkpt lat="50.74521" lon="3.10762">
        <ele>18.6</ele>
        <time>2020-12-06T08:11:20Z</time>
      </trkpt>
      <trkpt lat="50.74537" lon="3.10771">
        <ele>18.6</ele>
        <time>2020-12-06T08:11:24Z</time>
      </trkpt>
      <trkpt lat="50.74577" lon="3.1083">
        <ele>18.8</ele>
        <time>2020-12-06T08:11:35Z</time>
      </trkpt>
      <trkpt lat="50.74618" lon="3.10887">
        <ele>18.6</ele>
        <time>2020-12-06T08:11:46Z</time>
      </trkpt>
      <trkpt lat="50.74643" lon="3.10922">
        <ele>19</ele>
        <time>2020-12-06T08:11:54Z</time>
      </trkpt>
      <trkpt lat="50.74694" lon="3.10952">
        <ele>20</ele>
        <time>2020-12-06T08:12:11Z</time>
      </trkpt>
      <trkpt lat="50.74697" lon="3.10954">
        <ele>20</ele>
        <time>2020-12-06T08:12:12Z</time>
      </trkpt>
      <trkpt lat="50.74748" lon="3.10982">
        <ele>20</ele>
        <time>2020-12-06T08:12:29Z</time>
      </trkpt>
      <trkpt lat="50.74799" lon="3.11019">
        <ele>19.6</ele>
        <time>2020-12-06T08:12:44Z</time>
      </trkpt>
      <trkpt lat="50.74849" lon="3.11061">
        <ele>19.4</ele>
        <time>2020-12-06T08:12:57Z</time>
      </trkpt>
      <trkpt lat="50.74857" lon="3.11068">
        <ele>19</ele>
        <time>2020-12-06T08:12:59Z</time>
      </trkpt>
      <trkpt lat="50.7491" lon="3.11106">
        <ele>18.8</ele>
        <time>2020-12-06T08:13:13Z</time>
      </trkpt>
      <trkpt lat="50.74955" lon="3.11147">
        <ele>18.2</ele>
        <time>2020-12-06T08:13:27Z</time>
      </trkpt>
      <trkpt lat="50.74997" lon="3.11202">
        <ele>17.6</ele>
        <time>2020-12-06T08:13:42Z</time>
      </trkpt>
      <trkpt lat="50.75033" lon="3.11266">
        <ele>13.4</ele>
        <time>2020-12-06T08:13:58Z</time>
      </trkpt>
      <trkpt lat="50.75035" lon="3.1127">
        <ele>17.2</ele>
        <time>2020-12-06T08:13:59Z</time>
      </trkpt>
      <trkpt lat="50.75048" lon="3.11302">
        <ele>16.8</ele>
        <time>2020-12-06T08:14:06Z</time>
      </trkpt>
      <trkpt lat="50.75056" lon="3.11307">
        <ele>16.8</ele>
        <time>2020-12-06T08:14:13Z</time>
      </trkpt>
      <trkpt lat="50.75109" lon="3.11285">
        <ele>16</ele>
        <time>2020-12-06T08:14:28Z</time>
      </trkpt>
      <trkpt lat="50.75158" lon="3.11249">
        <ele>16.4</ele>
        <time>2020-12-06T08:14:45Z</time>
      </trkpt>
      <trkpt lat="50.75194" lon="3.11183">
        <ele>16.2</ele>
        <time>2020-12-06T08:15:02Z</time>
      </trkpt>
      <trkpt lat="50.75246" lon="3.11165">
        <ele>16</ele>
        <time>2020-12-06T08:15:18Z</time>
      </trkpt>
      <trkpt lat="50.75282" lon="3.11226">
        <ele>17</ele>
        <time>2020-12-06T08:15:41Z</time>
      </trkpt>
      <trkpt lat="50.75321" lon="3.11287">
        <ele>17.2</ele>
        <time>2020-12-06T08:15:58Z</time>
      </trkpt>
      <trkpt lat="50.75339" lon="3.11302">
        <ele>17.2</ele>
        <time>2020-12-06T08:16:04Z</time>
      </trkpt>
      <trkpt lat="50.75384" lon="3.11244">
        <ele>17.2</ele>
        <time>2020-12-06T08:16:15Z</time>
      </trkpt>
      <trkpt lat="50.75424" lon="3.11187">
        <ele>15.6</ele>
        <time>2020-12-06T08:16:24Z</time>
      </trkpt>
      <trkpt lat="50.7545" lon="3.11154">
        <ele>15.2</ele>
        <time>2020-12-06T08:16:29Z</time>
      </trkpt>
      <trkpt lat="50.75494" lon="3.111">
        <ele>14.4</ele>
        <time>2020-12-06T08:16:38Z</time>
      </trkpt>
      <trkpt lat="50.75543" lon="3.11052">
        <ele>14.4</ele>
        <time>2020-12-06T08:16:48Z</time>
      </trkpt>
      <trkpt lat="50.75557" lon="3.11039">
        <ele>14.4</ele>
        <time>2020-12-06T08:16:51Z</time>
      </trkpt>
      <trkpt lat="50.75563" lon="3.11021">
        <ele>14.6</ele>
        <time>2020-12-06T08:16:54Z</time>
      </trkpt>
      <trkpt lat="50.75567" lon="3.11007">
        <ele>14.6</ele>
        <time>2020-12-06T08:16:56Z</time>
      </trkpt>
      <trkpt lat="50.75569" lon="3.10983">
        <ele>14.6</ele>
        <time>2020-12-06T08:16:59Z</time>
      </trkpt>
      <trkpt lat="50.75582" lon="3.10892">
        <ele>14.4</ele>
        <time>2020-12-06T08:17:09Z</time>
      </trkpt>
      <trkpt lat="50.75595" lon="3.10807">
        <ele>14</ele>
        <time>2020-12-06T08:17:19Z</time>
      </trkpt>
      <trkpt lat="50.75598" lon="3.10783">
        <ele>14</ele>
        <time>2020-12-06T08:17:22Z</time>
      </trkpt>
      <trkpt lat="50.75613" lon="3.107">
        <ele>14.4</ele>
        <time>2020-12-06T08:17:32Z</time>
      </trkpt>
      <trkpt lat="50.75616" lon="3.10692">
        <ele>14.4</ele>
        <time>2020-12-06T08:17:33Z</time>
      </trkpt>
      <trkpt lat="50.75657" lon="3.1064">
        <ele>14.4</ele>
        <time>2020-12-06T08:17:43Z</time>
      </trkpt>
      <trkpt lat="50.75673" lon="3.10655">
        <ele>14.8</ele>
        <time>2020-12-06T08:17:50Z</time>
      </trkpt>
      <trkpt lat="50.75676" lon="3.10668">
        <ele>15.2</ele>
        <time>2020-12-06T08:17:52Z</time>
      </trkpt>
      <trkpt lat="50.75681" lon="3.10687">
        <ele>15.4</ele>
        <time>2020-12-06T08:17:55Z</time>
      </trkpt>
      <trkpt lat="50.75683" lon="3.10694">
        <ele>15.4</ele>
        <time>2020-12-06T08:17:56Z</time>
      </trkpt>
      <trkpt lat="50.75716" lon="3.10766">
        <ele>15.2</ele>
        <time>2020-12-06T08:18:09Z</time>
      </trkpt>
      <trkpt lat="50.75749" lon="3.10839">
        <ele>15</ele>
        <time>2020-12-06T08:18:22Z</time>
      </trkpt>
      <trkpt lat="50.7579" lon="3.10904">
        <ele>14.6</ele>
        <time>2020-12-06T08:18:35Z</time>
      </trkpt>
      <trkpt lat="50.75839" lon="3.1094">
        <ele>14.4</ele>
        <time>2020-12-06T08:18:47Z</time>
      </trkpt>
      <trkpt lat="50.75892" lon="3.10982">
        <ele>15.4</ele>
        <time>2020-12-06T08:19:00Z</time>
      </trkpt>
      <trkpt lat="50.75945" lon="3.11016">
        <ele>15.6</ele>
        <time>2020-12-06T08:19:12Z</time>
      </trkpt>
      <trkpt lat="50.75962" lon="3.11023">
        <ele>15.4</ele>
        <time>2020-12-06T08:19:16Z</time>
      </trkpt>
      <trkpt lat="50.75964" lon="3.11047">
        <ele>15.4</ele>
        <time>2020-12-06T08:19:20Z</time>
      </trkpt>
      <trkpt lat="50.75958" lon="3.11132">
        <ele>15</ele>
        <time>2020-12-06T08:19:32Z</time>
      </trkpt>
      <trkpt lat="50.75955" lon="3.11171">
        <ele>14.6</ele>
        <time>2020-12-06T08:19:38Z</time>
      </trkpt>
      <trkpt lat="50.75967" lon="3.11188">
        <ele>14.6</ele>
        <time>2020-12-06T08:19:42Z</time>
      </trkpt>
      <trkpt lat="50.75995" lon="3.11217">
        <ele>14.4</ele>
        <time>2020-12-06T08:19:49Z</time>
      </trkpt>
      <trkpt lat="50.76028" lon="3.11255">
        <ele>14.2</ele>
        <time>2020-12-06T08:19:58Z</time>
      </trkpt>
      <trkpt lat="50.76055" lon="3.11334">
        <ele>14.4</ele>
        <time>2020-12-06T08:20:10Z</time>
      </trkpt>
      <trkpt lat="50.76082" lon="3.11411">
        <ele>14.4</ele>
        <time>2020-12-06T08:20:22Z</time>
      </trkpt>
      <trkpt lat="50.76091" lon="3.11441">
        <ele>14.4</ele>
        <time>2020-12-06T08:20:27Z</time>
      </trkpt>
      <trkpt lat="50.76123" lon="3.11517">
        <ele>14.4</ele>
        <time>2020-12-06T08:20:39Z</time>
      </trkpt>
      <trkpt lat="50.76154" lon="3.11591">
        <ele>14.4</ele>
        <time>2020-12-06T08:20:50Z</time>
      </trkpt>
      <trkpt lat="50.76183" lon="3.11663">
        <ele>15.6</ele>
        <time>2020-12-06T08:21:02Z</time>
      </trkpt>
      <trkpt lat="50.76185" lon="3.11669">
        <ele>15.8</ele>
        <time>2020-12-06T08:21:03Z</time>
      </trkpt>
      <trkpt lat="50.76198" lon="3.11703">
        <ele>16.8</ele>
        <time>2020-12-06T08:21:09Z</time>
      </trkpt>
      <trkpt lat="50.76218" lon="3.11753">
        <ele>17.8</ele>
        <time>2020-12-06T08:21:18Z</time>
      </trkpt>
      <trkpt lat="50.76237" lon="3.118">
        <ele>18.8</ele>
        <time>2020-12-06T08:21:27Z</time>
      </trkpt>
      <trkpt lat="50.76251" lon="3.11836">
        <ele>20.2</ele>
        <time>2020-12-06T08:21:35Z</time>
      </trkpt>
      <trkpt lat="50.76259" lon="3.11863">
        <ele>21.2</ele>
        <time>2020-12-06T08:21:41Z</time>
      </trkpt>
      <trkpt lat="50.76273" lon="3.11892">
        <ele>22.4</ele>
        <time>2020-12-06T08:21:49Z</time>
      </trkpt>
      <trkpt lat="50.76289" lon="3.11924">
        <ele>23.6</ele>
        <time>2020-12-06T08:21:59Z</time>
      </trkpt>
      <trkpt lat="50.76326" lon="3.11989">
        <ele>23.8</ele>
        <time>2020-12-06T08:22:14Z</time>
      </trkpt>
      <trkpt lat="50.76332" lon="3.11999">
        <ele>23.6</ele>
        <time>2020-12-06T08:22:16Z</time>
      </trkpt>
      <trkpt lat="50.76341" lon="3.12034">
        <ele>22.4</ele>
        <time>2020-12-06T08:22:22Z</time>
      </trkpt>
      <trkpt lat="50.76345" lon="3.12101">
        <ele>21.8</ele>
        <time>2020-12-06T08:22:33Z</time>
      </trkpt>
      <trkpt lat="50.76355" lon="3.12102">
        <ele>21.4</ele>
        <time>2020-12-06T08:22:36Z</time>
      </trkpt>
      <trkpt lat="50.76412" lon="3.12104">
        <ele>20.8</ele>
        <time>2020-12-06T08:22:51Z</time>
      </trkpt>
      <trkpt lat="50.76445" lon="3.12105">
        <ele>20.2</ele>
        <time>2020-12-06T08:22:59Z</time>
      </trkpt>
      <trkpt lat="50.76465" lon="3.12105">
        <ele>19</ele>
        <time>2020-12-06T08:23:04Z</time>
      </trkpt>
      <trkpt lat="50.76513" lon="3.12099">
        <ele>18</ele>
        <time>2020-12-06T08:23:17Z</time>
      </trkpt>
      <trkpt lat="50.76538" lon="3.12054">
        <ele>17.4</ele>
        <time>2020-12-06T08:23:27Z</time>
      </trkpt>
      <trkpt lat="50.76545" lon="3.12047">
        <ele>17.2</ele>
        <time>2020-12-06T08:23:29Z</time>
      </trkpt>
      <trkpt lat="50.76552" lon="3.12041">
        <ele>16.8</ele>
        <time>2020-12-06T08:23:31Z</time>
      </trkpt>
      <trkpt lat="50.76559" lon="3.12034">
        <ele>16.8</ele>
        <time>2020-12-06T08:23:33Z</time>
      </trkpt>
      <trkpt lat="50.7657" lon="3.12013">
        <ele>16.6</ele>
        <time>2020-12-06T08:23:37Z</time>
      </trkpt>
      <trkpt lat="50.76573" lon="3.12009">
        <ele>16.4</ele>
        <time>2020-12-06T08:23:38Z</time>
      </trkpt>
      <trkpt lat="50.76583" lon="3.12011">
        <ele>16</ele>
        <time>2020-12-06T08:23:41Z</time>
      </trkpt>
      <trkpt lat="50.76593" lon="3.11998">
        <ele>15.6</ele>
        <time>2020-12-06T08:23:45Z</time>
      </trkpt>
      <trkpt lat="50.76595" lon="3.11992">
        <ele>15.6</ele>
        <time>2020-12-06T08:23:46Z</time>
      </trkpt>
      <trkpt lat="50.76616" lon="3.11909">
        <ele>15</ele>
        <time>2020-12-06T08:23:59Z</time>
      </trkpt>
      <trkpt lat="50.76635" lon="3.11825">
        <ele>15</ele>
        <time>2020-12-06T08:24:13Z</time>
      </trkpt>
      <trkpt lat="50.76649" lon="3.11777">
        <ele>15.2</ele>
        <time>2020-12-06T08:24:22Z</time>
      </trkpt>
      <trkpt lat="50.76662" lon="3.11791">
        <ele>15.2</ele>
        <time>2020-12-06T08:24:26Z</time>
      </trkpt>
      <trkpt lat="50.7669" lon="3.11868">
        <ele>14.2</ele>
        <time>2020-12-06T08:24:37Z</time>
      </trkpt>
      <trkpt lat="50.76696" lon="3.11877">
        <ele>14</ele>
        <time>2020-12-06T08:24:39Z</time>
      </trkpt>
      <trkpt lat="50.7671" lon="3.11859">
        <ele>13.8</ele>
        <time>2020-12-06T08:24:43Z</time>
      </trkpt>
      <trkpt lat="50.76747" lon="3.11788">
        <ele>13.6</ele>
        <time>2020-12-06T08:24:54Z</time>
      </trkpt>
      <trkpt lat="50.76781" lon="3.11712">
        <ele>14.2</ele>
        <time>2020-12-06T08:25:04Z</time>
      </trkpt>
      <trkpt lat="50.7681" lon="3.11637">
        <ele>15</ele>
        <time>2020-12-06T08:25:14Z</time>
      </trkpt>
      <trkpt lat="50.76817" lon="3.11616">
        <ele>15</ele>
        <time>2020-12-06T08:25:17Z</time>
      </trkpt>
      <trkpt lat="50.76854" lon="3.11552">
        <ele>16.2</ele>
        <time>2020-12-06T08:25:28Z</time>
      </trkpt>
      <trkpt lat="50.76871" lon="3.1151">
        <ele>17.2</ele>
        <time>2020-12-06T08:25:35Z</time>
      </trkpt>
      <trkpt lat="50.7688" lon="3.11486">
        <ele>18.2</ele>
        <time>2020-12-06T08:25:40Z</time>
      </trkpt>
      <trkpt lat="50.76885" lon="3.11488">
        <ele>18.4</ele>
        <time>2020-12-06T08:25:42Z</time>
      </trkpt>
      <trkpt lat="50.76893" lon="3.11496">
        <ele>18.8</ele>
        <time>2020-12-06T08:25:45Z</time>
      </trkpt>
      <trkpt lat="50.76911" lon="3.11519">
        <ele>19</ele>
        <time>2020-12-06T08:25:50Z</time>
      </trkpt>
      <trkpt lat="50.7692" lon="3.11531">
        <ele>19</ele>
        <time>2020-12-06T08:25:52Z</time>
      </trkpt>
      <trkpt lat="50.76943" lon="3.11552">
        <ele>19</ele>
        <time>2020-12-06T08:25:57Z</time>
      </trkpt>
      <trkpt lat="50.76966" lon="3.11584">
        <ele>18.8</ele>
        <time>2020-12-06T08:26:04Z</time>
      </trkpt>
      <trkpt lat="50.76969" lon="3.11589">
        <ele>18.8</ele>
        <time>2020-12-06T08:26:05Z</time>
      </trkpt>
      <trkpt lat="50.76982" lon="3.11606">
        <ele>18.8</ele>
        <time>2020-12-06T08:26:09Z</time>
      </trkpt>
      <trkpt lat="50.7701" lon="3.11644">
        <ele>19.8</ele>
        <time>2020-12-06T08:26:19Z</time>
      </trkpt>
      <trkpt lat="50.77033" lon="3.11676">
        <ele>20.8</ele>
        <time>2020-12-06T08:26:27Z</time>
      </trkpt>
      <trkpt lat="50.77062" lon="3.1171">
        <ele>22</ele>
        <time>2020-12-06T08:26:35Z</time>
      </trkpt>
      <trkpt lat="50.77069" lon="3.1172">
        <ele>22.4</ele>
        <time>2020-12-06T08:26:37Z</time>
      </trkpt>
      <trkpt lat="50.77076" lon="3.11729">
        <ele>22.4</ele>
        <time>2020-12-06T08:26:39Z</time>
      </trkpt>
      <trkpt lat="50.77109" lon="3.11771">
        <ele>23.2</ele>
        <time>2020-12-06T08:26:53Z</time>
      </trkpt>
      <trkpt lat="50.77159" lon="3.11812">
        <ele>23</ele>
        <time>2020-12-06T08:27:07Z</time>
      </trkpt>
      <trkpt lat="50.77175" lon="3.11738">
        <ele>23.6</ele>
        <time>2020-12-06T08:27:24Z</time>
      </trkpt>
      <trkpt lat="50.77186" lon="3.11673">
        <ele>24.4</ele>
        <time>2020-12-06T08:27:37Z</time>
      </trkpt>
      <trkpt lat="50.77208" lon="3.11621">
        <ele>25.6</ele>
        <time>2020-12-06T08:27:47Z</time>
      </trkpt>
      <trkpt lat="50.77225" lon="3.11585">
        <ele>26.6</ele>
        <time>2020-12-06T08:27:54Z</time>
      </trkpt>
      <trkpt lat="50.77245" lon="3.1154">
        <ele>27.4</ele>
        <time>2020-12-06T08:28:02Z</time>
      </trkpt>
      <trkpt lat="50.77252" lon="3.11529">
        <ele>27.6</ele>
        <time>2020-12-06T08:28:04Z</time>
      </trkpt>
      <trkpt lat="50.77259" lon="3.1152">
        <ele>27.8</ele>
        <time>2020-12-06T08:28:06Z</time>
      </trkpt>
      <trkpt lat="50.77311" lon="3.11492">
        <ele>28.2</ele>
        <time>2020-12-06T08:28:18Z</time>
      </trkpt>
      <trkpt lat="50.77324" lon="3.11487">
        <ele>28.2</ele>
        <time>2020-12-06T08:28:21Z</time>
      </trkpt>
      <trkpt lat="50.77337" lon="3.11477">
        <ele>27.8</ele>
        <time>2020-12-06T08:28:24Z</time>
      </trkpt>
      <trkpt lat="50.77344" lon="3.11444">
        <ele>27.8</ele>
        <time>2020-12-06T08:28:29Z</time>
      </trkpt>
      <trkpt lat="50.77347" lon="3.11355">
        <ele>28.6</ele>
        <time>2020-12-06T08:28:43Z</time>
      </trkpt>
      <trkpt lat="50.77347" lon="3.11344">
        <ele>29</ele>
        <time>2020-12-06T08:28:45Z</time>
      </trkpt>
      <trkpt lat="50.77351" lon="3.1131">
        <ele>30</ele>
        <time>2020-12-06T08:28:51Z</time>
      </trkpt>
      <trkpt lat="50.77355" lon="3.11264">
        <ele>31</ele>
        <time>2020-12-06T08:28:59Z</time>
      </trkpt>
      <trkpt lat="50.77387" lon="3.11193">
        <ele>31.8</ele>
        <time>2020-12-06T08:29:14Z</time>
      </trkpt>
      <trkpt lat="50.77393" lon="3.11185">
        <ele>31.8</ele>
        <time>2020-12-06T08:29:16Z</time>
      </trkpt>
      <trkpt lat="50.77405" lon="3.11179">
        <ele>31.8</ele>
        <time>2020-12-06T08:29:19Z</time>
      </trkpt>
      <trkpt lat="50.77428" lon="3.11183">
        <ele>31.4</ele>
        <time>2020-12-06T08:29:24Z</time>
      </trkpt>
      <trkpt lat="50.77462" lon="3.11198">
        <ele>29.8</ele>
        <time>2020-12-06T08:29:31Z</time>
      </trkpt>
      <trkpt lat="50.77489" lon="3.11212">
        <ele>28.8</ele>
        <time>2020-12-06T08:29:36Z</time>
      </trkpt>
      <trkpt lat="50.77511" lon="3.11229">
        <ele>27.6</ele>
        <time>2020-12-06T08:29:40Z</time>
      </trkpt>
      <trkpt lat="50.77543" lon="3.11264">
        <ele>26.4</ele>
        <time>2020-12-06T08:29:46Z</time>
      </trkpt>
      <trkpt lat="50.77559" lon="3.11285">
        <ele>25.4</ele>
        <time>2020-12-06T08:29:49Z</time>
      </trkpt>
      <trkpt lat="50.77575" lon="3.11307">
        <ele>24</ele>
        <time>2020-12-06T08:29:52Z</time>
      </trkpt>
      <trkpt lat="50.77592" lon="3.11331">
        <ele>22.8</ele>
        <time>2020-12-06T08:29:56Z</time>
      </trkpt>
      <trkpt lat="50.77595" lon="3.11334">
        <ele>22.6</ele>
        <time>2020-12-06T08:29:57Z</time>
      </trkpt>
      <trkpt lat="50.77602" lon="3.1133">
        <ele>21.8</ele>
        <time>2020-12-06T08:29:59Z</time>
      </trkpt>
      <trkpt lat="50.77602" lon="3.11317">
        <ele>21.4</ele>
        <time>2020-12-06T08:30:01Z</time>
      </trkpt>
      <trkpt lat="50.77604" lon="3.11229">
        <ele>21.4</ele>
        <time>2020-12-06T08:30:13Z</time>
      </trkpt>
      <trkpt lat="50.77601" lon="3.1114">
        <ele>21.6</ele>
        <time>2020-12-06T08:30:23Z</time>
      </trkpt>
      <trkpt lat="50.77601" lon="3.1105">
        <ele>21.4</ele>
        <time>2020-12-06T08:30:32Z</time>
      </trkpt>
      <trkpt lat="50.77604" lon="3.10964">
        <ele>21.2</ele>
        <time>2020-12-06T08:30:41Z</time>
      </trkpt>
      <trkpt lat="50.77601" lon="3.10877">
        <ele>21.4</ele>
        <time>2020-12-06T08:30:50Z</time>
      </trkpt>
      <trkpt lat="50.77601" lon="3.10867">
        <ele>21.4</ele>
        <time>2020-12-06T08:30:51Z</time>
      </trkpt>
      <trkpt lat="50.77598" lon="3.10847">
        <ele>21.4</ele>
        <time>2020-12-06T08:30:53Z</time>
      </trkpt>
      <trkpt lat="50.77571" lon="3.10771">
        <ele>21</ele>
        <time>2020-12-06T08:31:01Z</time>
      </trkpt>
      <trkpt lat="50.77539" lon="3.10692">
        <ele>21</ele>
        <time>2020-12-06T08:31:10Z</time>
      </trkpt>
      <trkpt lat="50.77507" lon="3.10622">
        <ele>21.4</ele>
        <time>2020-12-06T08:31:19Z</time>
      </trkpt>
      <trkpt lat="50.77474" lon="3.10546">
        <ele>21.4</ele>
        <time>2020-12-06T08:31:30Z</time>
      </trkpt>
      <trkpt lat="50.77441" lon="3.10476">
        <ele>22.4</ele>
        <time>2020-12-06T08:31:41Z</time>
      </trkpt>
      <trkpt lat="50.77406" lon="3.10402">
        <ele>22.4</ele>
        <time>2020-12-06T08:31:52Z</time>
      </trkpt>
      <trkpt lat="50.77367" lon="3.10335">
        <ele>22</ele>
        <time>2020-12-06T08:32:04Z</time>
      </trkpt>
      <trkpt lat="50.77343" lon="3.10294">
        <ele>21.2</ele>
        <time>2020-12-06T08:32:11Z</time>
      </trkpt>
      <trkpt lat="50.77323" lon="3.10259">
        <ele>20.2</ele>
        <time>2020-12-06T08:32:17Z</time>
      </trkpt>
      <trkpt lat="50.77299" lon="3.10218">
        <ele>19.6</ele>
        <time>2020-12-06T08:32:24Z</time>
      </trkpt>
      <trkpt lat="50.77294" lon="3.10186">
        <ele>19.2</ele>
        <time>2020-12-06T08:32:28Z</time>
      </trkpt>
      <trkpt lat="50.77296" lon="3.10157">
        <ele>18.4</ele>
        <time>2020-12-06T08:32:32Z</time>
      </trkpt>
      <trkpt lat="50.77295" lon="3.10142">
        <ele>18</ele>
        <time>2020-12-06T08:32:34Z</time>
      </trkpt>
      <trkpt lat="50.77277" lon="3.10122">
        <ele>17</ele>
        <time>2020-12-06T08:32:39Z</time>
      </trkpt>
      <trkpt lat="50.77272" lon="3.10121">
        <ele>16.6</ele>
        <time>2020-12-06T08:32:40Z</time>
      </trkpt>
      <trkpt lat="50.77216" lon="3.10104">
        <ele>16.8</ele>
        <time>2020-12-06T08:32:53Z</time>
      </trkpt>
      <trkpt lat="50.77203" lon="3.101">
        <ele>17.4</ele>
        <time>2020-12-06T08:32:58Z</time>
      </trkpt>
      <trkpt lat="50.77204" lon="3.10092">
        <ele>17.8</ele>
        <time>2020-12-06T08:33:00Z</time>
      </trkpt>
      <trkpt lat="50.77207" lon="3.10084">
        <ele>18.4</ele>
        <time>2020-12-06T08:33:02Z</time>
      </trkpt>
      <trkpt lat="50.77216" lon="3.10061">
        <ele>18.8</ele>
        <time>2020-12-06T08:33:06Z</time>
      </trkpt>
      <trkpt lat="50.77245" lon="3.09989">
        <ele>18</ele>
        <time>2020-12-06T08:33:15Z</time>
      </trkpt>
      <trkpt lat="50.77248" lon="3.09979">
        <ele>17.8</ele>
        <time>2020-12-06T08:33:16Z</time>
      </trkpt>
      <trkpt lat="50.77247" lon="3.09948">
        <ele>16.6</ele>
        <time>2020-12-06T08:33:19Z</time>
      </trkpt>
      <trkpt lat="50.77243" lon="3.0992">
        <ele>15.6</ele>
        <time>2020-12-06T08:33:22Z</time>
      </trkpt>
      <trkpt lat="50.77241" lon="3.09912">
        <ele>15.2</ele>
        <time>2020-12-06T08:33:23Z</time>
      </trkpt>
      <trkpt lat="50.77233" lon="3.09875">
        <ele>14.2</ele>
        <time>2020-12-06T08:33:27Z</time>
      </trkpt>
      <trkpt lat="50.7721" lon="3.09793">
        <ele>13.6</ele>
        <time>2020-12-06T08:33:36Z</time>
      </trkpt>
      <trkpt lat="50.77206" lon="3.09785">
        <ele>13.4</ele>
        <time>2020-12-06T08:33:37Z</time>
      </trkpt>
      <trkpt lat="50.77187" lon="3.09781">
        <ele>13.6</ele>
        <time>2020-12-06T08:33:41Z</time>
      </trkpt>
      <trkpt lat="50.77183" lon="3.09784">
        <ele>13.6</ele>
        <time>2020-12-06T08:33:42Z</time>
      </trkpt>
      <trkpt lat="50.77131" lon="3.0982">
        <ele>14.4</ele>
        <time>2020-12-06T08:33:54Z</time>
      </trkpt>
      <trkpt lat="50.77097" lon="3.09843">
        <ele>15.4</ele>
        <time>2020-12-06T08:34:03Z</time>
      </trkpt>
      <trkpt lat="50.7706" lon="3.09867">
        <ele>16.4</ele>
        <time>2020-12-06T08:34:14Z</time>
      </trkpt>
      <trkpt lat="50.77045" lon="3.09877">
        <ele>17.6</ele>
        <time>2020-12-06T08:34:19Z</time>
      </trkpt>
      <trkpt lat="50.77028" lon="3.09889">
        <ele>18.6</ele>
        <time>2020-12-06T08:34:25Z</time>
      </trkpt>
      <trkpt lat="50.77012" lon="3.099">
        <ele>19.6</ele>
        <time>2020-12-06T08:34:31Z</time>
      </trkpt>
      <trkpt lat="50.77002" lon="3.09905">
        <ele>20.6</ele>
        <time>2020-12-06T08:34:35Z</time>
      </trkpt>
      <trkpt lat="50.77" lon="3.09903">
        <ele>20.8</ele>
        <time>2020-12-06T08:34:36Z</time>
      </trkpt>
      <trkpt lat="50.76996" lon="3.09892">
        <ele>21.2</ele>
        <time>2020-12-06T08:34:39Z</time>
      </trkpt>
      <trkpt lat="50.76992" lon="3.09879">
        <ele>22</ele>
        <time>2020-12-06T08:34:42Z</time>
      </trkpt>
      <trkpt lat="50.7697" lon="3.09796">
        <ele>23</ele>
        <time>2020-12-06T08:34:57Z</time>
      </trkpt>
      <trkpt lat="50.76952" lon="3.09708">
        <ele>22.6</ele>
        <time>2020-12-06T08:35:10Z</time>
      </trkpt>
      <trkpt lat="50.76941" lon="3.09642">
        <ele>21</ele>
        <time>2020-12-06T08:35:17Z</time>
      </trkpt>
      <trkpt lat="50.76935" lon="3.0959">
        <ele>19.8</ele>
        <time>2020-12-06T08:35:22Z</time>
      </trkpt>
      <trkpt lat="50.76933" lon="3.09571">
        <ele>18.6</ele>
        <time>2020-12-06T08:35:24Z</time>
      </trkpt>
      <trkpt lat="50.76928" lon="3.09526">
        <ele>17.6</ele>
        <time>2020-12-06T08:35:29Z</time>
      </trkpt>
      <trkpt lat="50.76914" lon="3.0944">
        <ele>17.2</ele>
        <time>2020-12-06T08:35:39Z</time>
      </trkpt>
      <trkpt lat="50.76901" lon="3.09383">
        <ele>16.6</ele>
        <time>2020-12-06T08:35:46Z</time>
      </trkpt>
      <trkpt lat="50.76889" lon="3.09336">
        <ele>16.2</ele>
        <time>2020-12-06T08:35:52Z</time>
      </trkpt>
      <trkpt lat="50.76898" lon="3.09325">
        <ele>15.4</ele>
        <time>2020-12-06T08:35:55Z</time>
      </trkpt>
      <trkpt lat="50.76911" lon="3.09316">
        <ele>14.8</ele>
        <time>2020-12-06T08:35:58Z</time>
      </trkpt>
      <trkpt lat="50.76927" lon="3.09297">
        <ele>14.4</ele>
        <time>2020-12-06T08:36:02Z</time>
      </trkpt>
      <trkpt lat="50.76935" lon="3.09287">
        <ele>14.4</ele>
        <time>2020-12-06T08:36:04Z</time>
      </trkpt>
      <trkpt lat="50.76962" lon="3.09254">
        <ele>13.6</ele>
        <time>2020-12-06T08:36:11Z</time>
      </trkpt>
      <trkpt lat="50.76959" lon="3.09236">
        <ele>13.6</ele>
        <time>2020-12-06T08:36:15Z</time>
      </trkpt>
      <trkpt lat="50.76957" lon="3.09234">
        <ele>13.6</ele>
        <time>2020-12-06T08:36:16Z</time>
      </trkpt>
      <trkpt lat="50.7694" lon="3.09226">
        <ele>13.8</ele>
        <time>2020-12-06T08:36:23Z</time>
      </trkpt>
      <trkpt lat="50.7689" lon="3.09187">
        <ele>14.6</ele>
        <time>2020-12-06T08:36:35Z</time>
      </trkpt>
      <trkpt lat="50.76848" lon="3.09152">
        <ele>14.6</ele>
        <time>2020-12-06T08:36:44Z</time>
      </trkpt>
      <trkpt lat="50.76828" lon="3.0916">
        <ele>14.8</ele>
        <time>2020-12-06T08:36:48Z</time>
      </trkpt>
      <trkpt lat="50.76778" lon="3.09204">
        <ele>15</ele>
        <time>2020-12-06T08:36:58Z</time>
      </trkpt>
      <trkpt lat="50.76755" lon="3.09224">
        <ele>15.4</ele>
        <time>2020-12-06T08:37:03Z</time>
      </trkpt>
      <trkpt lat="50.76738" lon="3.09258">
        <ele>16.4</ele>
        <time>2020-12-06T08:37:09Z</time>
      </trkpt>
      <trkpt lat="50.76723" lon="3.09291">
        <ele>17.6</ele>
        <time>2020-12-06T08:37:16Z</time>
      </trkpt>
      <trkpt lat="50.76716" lon="3.09304">
        <ele>18.6</ele>
        <time>2020-12-06T08:37:19Z</time>
      </trkpt>
      <trkpt lat="50.76706" lon="3.09327">
        <ele>19.8</ele>
        <time>2020-12-06T08:37:24Z</time>
      </trkpt>
      <trkpt lat="50.76695" lon="3.09346">
        <ele>20.8</ele>
        <time>2020-12-06T08:37:31Z</time>
      </trkpt>
      <trkpt lat="50.76686" lon="3.0935">
        <ele>21.8</ele>
        <time>2020-12-06T08:37:35Z</time>
      </trkpt>
      <trkpt lat="50.7668" lon="3.09352">
        <ele>22.6</ele>
        <time>2020-12-06T08:37:38Z</time>
      </trkpt>
      <trkpt lat="50.76674" lon="3.09353">
        <ele>22.8</ele>
        <time>2020-12-06T08:37:40Z</time>
      </trkpt>
      <trkpt lat="50.76636" lon="3.09363">
        <ele>23</ele>
        <time>2020-12-06T08:37:48Z</time>
      </trkpt>
      <trkpt lat="50.76597" lon="3.0937">
        <ele>22.2</ele>
        <time>2020-12-06T08:37:59Z</time>
      </trkpt>
      <trkpt lat="50.7659" lon="3.09352">
        <ele>23</ele>
        <time>2020-12-06T08:38:05Z</time>
      </trkpt>
      <trkpt lat="50.76578" lon="3.0928">
        <ele>22</ele>
        <time>2020-12-06T08:38:20Z</time>
      </trkpt>
      <trkpt lat="50.76578" lon="3.09279">
        <ele>21.8</ele>
        <time>2020-12-06T08:38:21Z</time>
      </trkpt>
      <trkpt lat="50.76577" lon="3.09279">
        <ele>21.6</ele>
        <time>2020-12-06T08:38:23Z</time>
      </trkpt>
      <trkpt lat="50.76571" lon="3.09276">
        <ele>21.6</ele>
        <time>2020-12-06T08:38:34Z</time>
      </trkpt>
      <trkpt lat="50.76518" lon="3.09299">
        <ele>21.8</ele>
        <time>2020-12-06T08:38:51Z</time>
      </trkpt>
      <trkpt lat="50.765" lon="3.09306">
        <ele>23</ele>
        <time>2020-12-06T08:38:57Z</time>
      </trkpt>
      <trkpt lat="50.76485" lon="3.09313">
        <ele>24.2</ele>
        <time>2020-12-06T08:39:02Z</time>
      </trkpt>
      <trkpt lat="50.7647" lon="3.0932">
        <ele>25.2</ele>
        <time>2020-12-06T08:39:07Z</time>
      </trkpt>
      <trkpt lat="50.76463" lon="3.09326">
        <ele>25.6</ele>
        <time>2020-12-06T08:39:10Z</time>
      </trkpt>
      <trkpt lat="50.76462" lon="3.09334">
        <ele>26.4</ele>
        <time>2020-12-06T08:39:12Z</time>
      </trkpt>
      <trkpt lat="50.76451" lon="3.09348">
        <ele>27.2</ele>
        <time>2020-12-06T08:39:17Z</time>
      </trkpt>
      <trkpt lat="50.76448" lon="3.09348">
        <ele>27.4</ele>
        <time>2020-12-06T08:39:18Z</time>
      </trkpt>
      <trkpt lat="50.76417" lon="3.09354">
        <ele>28.4</ele>
        <time>2020-12-06T08:39:26Z</time>
      </trkpt>
      <trkpt lat="50.76366" lon="3.09363">
        <ele>29.4</ele>
        <time>2020-12-06T08:39:38Z</time>
      </trkpt>
      <trkpt lat="50.76358" lon="3.09365">
        <ele>29.6</ele>
        <time>2020-12-06T08:39:40Z</time>
      </trkpt>
      <trkpt lat="50.76342" lon="3.09369">
        <ele>30.6</ele>
        <time>2020-12-06T08:39:44Z</time>
      </trkpt>
      <trkpt lat="50.76288" lon="3.09383">
        <ele>31.4</ele>
        <time>2020-12-06T08:39:58Z</time>
      </trkpt>
      <trkpt lat="50.76244" lon="3.09397">
        <ele>31.6</ele>
        <time>2020-12-06T08:40:10Z</time>
      </trkpt>
      <trkpt lat="50.76238" lon="3.09393">
        <ele>31.6</ele>
        <time>2020-12-06T08:40:12Z</time>
      </trkpt>
      <trkpt lat="50.76245" lon="3.09326">
        <ele>31.8</ele>
        <time>2020-12-06T08:40:23Z</time>
      </trkpt>
      <trkpt lat="50.76238" lon="3.0929">
        <ele>32</ele>
        <time>2020-12-06T08:40:28Z</time>
      </trkpt>
      <trkpt lat="50.76218" lon="3.09224">
        <ele>32.4</ele>
        <time>2020-12-06T08:40:37Z</time>
      </trkpt>
      <trkpt lat="50.76209" lon="3.09204">
        <ele>32.6</ele>
        <time>2020-12-06T08:40:40Z</time>
      </trkpt>
      <trkpt lat="50.76178" lon="3.09127">
        <ele>32.8</ele>
        <time>2020-12-06T08:40:51Z</time>
      </trkpt>
      <trkpt lat="50.76144" lon="3.09054">
        <ele>32.6</ele>
        <time>2020-12-06T08:41:02Z</time>
      </trkpt>
      <trkpt lat="50.76134" lon="3.09036">
        <ele>32.8</ele>
        <time>2020-12-06T08:41:05Z</time>
      </trkpt>
      <trkpt lat="50.76114" lon="3.08993">
        <ele>33.2</ele>
        <time>2020-12-06T08:41:12Z</time>
      </trkpt>
      <trkpt lat="50.76104" lon="3.08956">
        <ele>33.4</ele>
        <time>2020-12-06T08:41:18Z</time>
      </trkpt>
      <trkpt lat="50.76095" lon="3.08939">
        <ele>33.6</ele>
        <time>2020-12-06T08:41:21Z</time>
      </trkpt>
      <trkpt lat="50.7608" lon="3.08908">
        <ele>34.8</ele>
        <time>2020-12-06T08:41:26Z</time>
      </trkpt>
      <trkpt lat="50.76042" lon="3.0884">
        <ele>35.2</ele>
        <time>2020-12-06T08:41:37Z</time>
      </trkpt>
      <trkpt lat="50.76003" lon="3.08776">
        <ele>33.4</ele>
        <time>2020-12-06T08:41:46Z</time>
      </trkpt>
      <trkpt lat="50.75984" lon="3.08748">
        <ele>32.4</ele>
        <time>2020-12-06T08:41:50Z</time>
      </trkpt>
      <trkpt lat="50.75959" lon="3.08706">
        <ele>31.4</ele>
        <time>2020-12-06T08:41:56Z</time>
      </trkpt>
      <trkpt lat="50.75941" lon="3.08681">
        <ele>31</ele>
        <time>2020-12-06T08:42:00Z</time>
      </trkpt>
      <trkpt lat="50.75939" lon="3.08645">
        <ele>30.6</ele>
        <time>2020-12-06T08:42:07Z</time>
      </trkpt>
      <trkpt lat="50.75947" lon="3.08635">
        <ele>30.2</ele>
        <time>2020-12-06T08:42:09Z</time>
      </trkpt>
      <trkpt lat="50.75983" lon="3.08596">
        <ele>29</ele>
        <time>2020-12-06T08:42:16Z</time>
      </trkpt>
      <trkpt lat="50.75999" lon="3.0858">
        <ele>27.6</ele>
        <time>2020-12-06T08:42:19Z</time>
      </trkpt>
      <trkpt lat="50.76022" lon="3.08559">
        <ele>26.6</ele>
        <time>2020-12-06T08:42:23Z</time>
      </trkpt>
      <trkpt lat="50.76044" lon="3.08539">
        <ele>25.4</ele>
        <time>2020-12-06T08:42:27Z</time>
      </trkpt>
      <trkpt lat="50.76076" lon="3.08503">
        <ele>24.4</ele>
        <time>2020-12-06T08:42:33Z</time>
      </trkpt>
      <trkpt lat="50.76112" lon="3.08468">
        <ele>23.2</ele>
        <time>2020-12-06T08:42:39Z</time>
      </trkpt>
      <trkpt lat="50.76124" lon="3.08456">
        <ele>22</ele>
        <time>2020-12-06T08:42:41Z</time>
      </trkpt>
      <trkpt lat="50.76145" lon="3.08431">
        <ele>20.8</ele>
        <time>2020-12-06T08:42:45Z</time>
      </trkpt>
      <trkpt lat="50.76163" lon="3.08402">
        <ele>19.8</ele>
        <time>2020-12-06T08:42:49Z</time>
      </trkpt>
      <trkpt lat="50.76196" lon="3.08367">
        <ele>18.6</ele>
        <time>2020-12-06T08:42:55Z</time>
      </trkpt>
      <trkpt lat="50.76203" lon="3.08364">
        <ele>18.6</ele>
        <time>2020-12-06T08:42:56Z</time>
      </trkpt>
      <trkpt lat="50.76248" lon="3.08342">
        <ele>17.6</ele>
        <time>2020-12-06T08:43:03Z</time>
      </trkpt>
      <trkpt lat="50.76298" lon="3.08332">
        <ele>16.8</ele>
        <time>2020-12-06T08:43:16Z</time>
      </trkpt>
      <trkpt lat="50.76299" lon="3.08329">
        <ele>18</ele>
        <time>2020-12-06T08:43:43Z</time>
      </trkpt>
      <trkpt lat="50.76299" lon="3.08312">
        <ele>18.2</ele>
        <time>2020-12-06T08:43:48Z</time>
      </trkpt>
      <trkpt lat="50.76283" lon="3.08229">
        <ele>18</ele>
        <time>2020-12-06T08:44:03Z</time>
      </trkpt>
      <trkpt lat="50.76272" lon="3.08164">
        <ele>19</ele>
        <time>2020-12-06T08:44:16Z</time>
      </trkpt>
      <trkpt lat="50.76264" lon="3.08119">
        <ele>20</ele>
        <time>2020-12-06T08:44:27Z</time>
      </trkpt>
      <trkpt lat="50.76251" lon="3.08036">
        <ele>20.8</ele>
        <time>2020-12-06T08:44:42Z</time>
      </trkpt>
      <trkpt lat="50.76248" lon="3.08017">
        <ele>21</ele>
        <time>2020-12-06T08:44:46Z</time>
      </trkpt>
      <trkpt lat="50.76242" lon="3.07977">
        <ele>22.2</ele>
        <time>2020-12-06T08:44:54Z</time>
      </trkpt>
      <trkpt lat="50.76228" lon="3.07897">
        <ele>23.2</ele>
        <time>2020-12-06T08:45:09Z</time>
      </trkpt>
      <trkpt lat="50.76227" lon="3.07823">
        <ele>23.8</ele>
        <time>2020-12-06T08:45:26Z</time>
      </trkpt>
      <trkpt lat="50.76256" lon="3.07812">
        <ele>23.8</ele>
        <time>2020-12-06T08:45:35Z</time>
      </trkpt>
      <trkpt lat="50.7631" lon="3.07781">
        <ele>22.2</ele>
        <time>2020-12-06T08:45:48Z</time>
      </trkpt>
      <trkpt lat="50.7633" lon="3.07776">
        <ele>22</ele>
        <time>2020-12-06T08:45:53Z</time>
      </trkpt>
      <trkpt lat="50.76381" lon="3.0778">
        <ele>21.6</ele>
        <time>2020-12-06T08:46:05Z</time>
      </trkpt>
      <trkpt lat="50.76385" lon="3.07767">
        <ele>21.4</ele>
        <time>2020-12-06T08:46:07Z</time>
      </trkpt>
      <trkpt lat="50.76387" lon="3.07761">
        <ele>21.2</ele>
        <time>2020-12-06T08:46:08Z</time>
      </trkpt>
      <trkpt lat="50.76397" lon="3.07749">
        <ele>21.2</ele>
        <time>2020-12-06T08:46:11Z</time>
      </trkpt>
      <trkpt lat="50.76402" lon="3.07747">
        <ele>21</ele>
        <time>2020-12-06T08:46:12Z</time>
      </trkpt>
      <trkpt lat="50.76456" lon="3.0774">
        <ele>20.6</ele>
        <time>2020-12-06T08:46:23Z</time>
      </trkpt>
      <trkpt lat="50.76471" lon="3.07737">
        <ele>20.2</ele>
        <time>2020-12-06T08:46:26Z</time>
      </trkpt>
      <trkpt lat="50.76527" lon="3.07734">
        <ele>19.8</ele>
        <time>2020-12-06T08:46:37Z</time>
      </trkpt>
      <trkpt lat="50.76532" lon="3.07734">
        <ele>19.6</ele>
        <time>2020-12-06T08:46:38Z</time>
      </trkpt>
      <trkpt lat="50.76559" lon="3.07733">
        <ele>19</ele>
        <time>2020-12-06T08:46:43Z</time>
      </trkpt>
      <trkpt lat="50.76574" lon="3.0769">
        <ele>18.2</ele>
        <time>2020-12-06T08:46:53Z</time>
      </trkpt>
      <trkpt lat="50.76559" lon="3.07671">
        <ele>18.2</ele>
        <time>2020-12-06T08:46:56Z</time>
      </trkpt>
      <trkpt lat="50.76536" lon="3.07657">
        <ele>18.2</ele>
        <time>2020-12-06T08:47:00Z</time>
      </trkpt>
      <trkpt lat="50.76501" lon="3.07587">
        <ele>19.2</ele>
        <time>2020-12-06T08:47:10Z</time>
      </trkpt>
      <trkpt lat="50.76476" lon="3.07539">
        <ele>20.4</ele>
        <time>2020-12-06T08:47:18Z</time>
      </trkpt>
      <trkpt lat="50.76467" lon="3.07523">
        <ele>21.2</ele>
        <time>2020-12-06T08:47:21Z</time>
      </trkpt>
      <trkpt lat="50.76463" lon="3.07519">
        <ele>21.4</ele>
        <time>2020-12-06T08:47:22Z</time>
      </trkpt>
      <trkpt lat="50.76441" lon="3.07491">
        <ele>22.8</ele>
        <time>2020-12-06T08:47:28Z</time>
      </trkpt>
      <trkpt lat="50.76428" lon="3.0747">
        <ele>24</ele>
        <time>2020-12-06T08:47:32Z</time>
      </trkpt>
      <trkpt lat="50.76401" lon="3.0743">
        <ele>25</ele>
        <time>2020-12-06T08:47:40Z</time>
      </trkpt>
      <trkpt lat="50.7637" lon="3.07404">
        <ele>26</ele>
        <time>2020-12-06T08:47:48Z</time>
      </trkpt>
      <trkpt lat="50.76366" lon="3.07398">
        <ele>26.4</ele>
        <time>2020-12-06T08:47:50Z</time>
      </trkpt>
      <trkpt lat="50.76371" lon="3.07387">
        <ele>27</ele>
        <time>2020-12-06T08:47:54Z</time>
      </trkpt>
      <trkpt lat="50.76373" lon="3.07384">
        <ele>27.2</ele>
        <time>2020-12-06T08:47:55Z</time>
      </trkpt>
      <trkpt lat="50.76403" lon="3.07352">
        <ele>28.2</ele>
        <time>2020-12-06T08:48:04Z</time>
      </trkpt>
      <trkpt lat="50.76451" lon="3.07307">
        <ele>28.2</ele>
        <time>2020-12-06T08:48:15Z</time>
      </trkpt>
      <trkpt lat="50.76484" lon="3.07283">
        <ele>27.2</ele>
        <time>2020-12-06T08:48:21Z</time>
      </trkpt>
      <trkpt lat="50.765" lon="3.07272">
        <ele>25.6</ele>
        <time>2020-12-06T08:48:24Z</time>
      </trkpt>
      <trkpt lat="50.76504" lon="3.07267">
        <ele>25</ele>
        <time>2020-12-06T08:48:25Z</time>
      </trkpt>
      <trkpt lat="50.76506" lon="3.07254">
        <ele>24.4</ele>
        <time>2020-12-06T08:48:27Z</time>
      </trkpt>
      <trkpt lat="50.76504" lon="3.0724">
        <ele>24.2</ele>
        <time>2020-12-06T08:48:29Z</time>
      </trkpt>
      <trkpt lat="50.76491" lon="3.07157">
        <ele>25.4</ele>
        <time>2020-12-06T08:48:43Z</time>
      </trkpt>
      <trkpt lat="50.7649" lon="3.07151">
        <ele>25.4</ele>
        <time>2020-12-06T08:48:44Z</time>
      </trkpt>
      <trkpt lat="50.76464" lon="3.07072">
        <ele>26.4</ele>
        <time>2020-12-06T08:48:58Z</time>
      </trkpt>
      <trkpt lat="50.76461" lon="3.0706">
        <ele>26.4</ele>
        <time>2020-12-06T08:49:00Z</time>
      </trkpt>
      <trkpt lat="50.76457" lon="3.07049">
        <ele>26.6</ele>
        <time>2020-12-06T08:49:02Z</time>
      </trkpt>
      <trkpt lat="50.76444" lon="3.07">
        <ele>27.4</ele>
        <time>2020-12-06T08:49:10Z</time>
      </trkpt>
      <trkpt lat="50.76441" lon="3.06988">
        <ele>27.6</ele>
        <time>2020-12-06T08:49:12Z</time>
      </trkpt>
      <trkpt lat="50.76457" lon="3.06954">
        <ele>28.2</ele>
        <time>2020-12-06T08:49:18Z</time>
      </trkpt>
      <trkpt lat="50.76504" lon="3.06926">
        <ele>26.4</ele>
        <time>2020-12-06T08:49:26Z</time>
      </trkpt>
      <trkpt lat="50.76517" lon="3.0692">
        <ele>25.4</ele>
        <time>2020-12-06T08:49:28Z</time>
      </trkpt>
      <trkpt lat="50.76538" lon="3.06912">
        <ele>24</ele>
        <time>2020-12-06T08:49:31Z</time>
      </trkpt>
      <trkpt lat="50.76559" lon="3.06906">
        <ele>22.8</ele>
        <time>2020-12-06T08:49:34Z</time>
      </trkpt>
      <trkpt lat="50.76574" lon="3.06901">
        <ele>21.8</ele>
        <time>2020-12-06T08:49:36Z</time>
      </trkpt>
      <trkpt lat="50.76589" lon="3.06898">
        <ele>20.6</ele>
        <time>2020-12-06T08:49:38Z</time>
      </trkpt>
      <trkpt lat="50.76603" lon="3.06895">
        <ele>19.4</ele>
        <time>2020-12-06T08:49:40Z</time>
      </trkpt>
      <trkpt lat="50.76626" lon="3.06892">
        <ele>18.4</ele>
        <time>2020-12-06T08:49:43Z</time>
      </trkpt>
      <trkpt lat="50.76641" lon="3.06892">
        <ele>17.8</ele>
        <time>2020-12-06T08:49:45Z</time>
      </trkpt>
      <trkpt lat="50.76648" lon="3.06894">
        <ele>17.4</ele>
        <time>2020-12-06T08:49:46Z</time>
      </trkpt>
      <trkpt lat="50.76665" lon="3.06912">
        <ele>16</ele>
        <time>2020-12-06T08:49:49Z</time>
      </trkpt>
      <trkpt lat="50.76671" lon="3.0692">
        <ele>15.8</ele>
        <time>2020-12-06T08:49:50Z</time>
      </trkpt>
      <trkpt lat="50.76687" lon="3.06941">
        <ele>15</ele>
        <time>2020-12-06T08:49:53Z</time>
      </trkpt>
      <trkpt lat="50.76723" lon="3.06968">
        <ele>13.8</ele>
        <time>2020-12-06T08:49:59Z</time>
      </trkpt>
      <trkpt lat="50.76741" lon="3.06975">
        <ele>13.8</ele>
        <time>2020-12-06T08:50:02Z</time>
      </trkpt>
      <trkpt lat="50.76765" lon="3.06973">
        <ele>13.6</ele>
        <time>2020-12-06T08:50:06Z</time>
      </trkpt>
      <trkpt lat="50.76802" lon="3.06959">
        <ele>13.8</ele>
        <time>2020-12-06T08:50:13Z</time>
      </trkpt>
      <trkpt lat="50.76803" lon="3.06923">
        <ele>14</ele>
        <time>2020-12-06T08:50:19Z</time>
      </trkpt>
      <trkpt lat="50.76794" lon="3.06889">
        <ele>15</ele>
        <time>2020-12-06T08:50:24Z</time>
      </trkpt>
      <trkpt lat="50.76793" lon="3.06882">
        <ele>15.2</ele>
        <time>2020-12-06T08:50:25Z</time>
      </trkpt>
      <trkpt lat="50.7677" lon="3.068">
        <ele>15.2</ele>
        <time>2020-12-06T08:50:36Z</time>
      </trkpt>
      <trkpt lat="50.76764" lon="3.06782">
        <ele>15</ele>
        <time>2020-12-06T08:50:39Z</time>
      </trkpt>
      <trkpt lat="50.76754" lon="3.06712">
        <ele>14.4</ele>
        <time>2020-12-06T08:50:48Z</time>
      </trkpt>
      <trkpt lat="50.76728" lon="3.06675">
        <ele>14.4</ele>
        <time>2020-12-06T08:50:54Z</time>
      </trkpt>
      <trkpt lat="50.76708" lon="3.06655">
        <ele>14.4</ele>
        <time>2020-12-06T08:50:58Z</time>
      </trkpt>
      <trkpt lat="50.76673" lon="3.06588">
        <ele>15</ele>
        <time>2020-12-06T08:51:08Z</time>
      </trkpt>
      <trkpt lat="50.76649" lon="3.06544">
        <ele>16.2</ele>
        <time>2020-12-06T08:51:16Z</time>
      </trkpt>
      <trkpt lat="50.76635" lon="3.06519">
        <ele>17.4</ele>
        <time>2020-12-06T08:51:21Z</time>
      </trkpt>
      <trkpt lat="50.76624" lon="3.06499">
        <ele>18.4</ele>
        <time>2020-12-06T08:51:25Z</time>
      </trkpt>
      <trkpt lat="50.76621" lon="3.06493">
        <ele>18.4</ele>
        <time>2020-12-06T08:51:26Z</time>
      </trkpt>
      <trkpt lat="50.76603" lon="3.0646">
        <ele>19.4</ele>
        <time>2020-12-06T08:51:33Z</time>
      </trkpt>
      <trkpt lat="50.76591" lon="3.06437">
        <ele>20.4</ele>
        <time>2020-12-06T08:51:38Z</time>
      </trkpt>
      <trkpt lat="50.7658" lon="3.06415">
        <ele>21.6</ele>
        <time>2020-12-06T08:51:43Z</time>
      </trkpt>
      <trkpt lat="50.76563" lon="3.0638">
        <ele>22.6</ele>
        <time>2020-12-06T08:51:50Z</time>
      </trkpt>
      <trkpt lat="50.76541" lon="3.06321">
        <ele>23.6</ele>
        <time>2020-12-06T08:52:02Z</time>
      </trkpt>
      <trkpt lat="50.76514" lon="3.06245">
        <ele>24.6</ele>
        <time>2020-12-06T08:52:17Z</time>
      </trkpt>
      <trkpt lat="50.76508" lon="3.06234">
        <ele>24.8</ele>
        <time>2020-12-06T08:52:20Z</time>
      </trkpt>
      <trkpt lat="50.76483" lon="3.06221">
        <ele>25.8</ele>
        <time>2020-12-06T08:52:30Z</time>
      </trkpt>
      <trkpt lat="50.76467" lon="3.06234">
        <ele>26.8</ele>
        <time>2020-12-06T08:52:36Z</time>
      </trkpt>
      <trkpt lat="50.76452" lon="3.06255">
        <ele>28</ele>
        <time>2020-12-06T08:52:43Z</time>
      </trkpt>
      <trkpt lat="50.76437" lon="3.06275">
        <ele>29</ele>
        <time>2020-12-06T08:52:50Z</time>
      </trkpt>
      <trkpt lat="50.76414" lon="3.063">
        <ele>30</ele>
        <time>2020-12-06T08:52:59Z</time>
      </trkpt>
      <trkpt lat="50.76396" lon="3.06323">
        <ele>31.2</ele>
        <time>2020-12-06T08:53:05Z</time>
      </trkpt>
      <trkpt lat="50.7638" lon="3.06347">
        <ele>31.2</ele>
        <time>2020-12-06T08:53:10Z</time>
      </trkpt>
      <trkpt lat="50.76364" lon="3.06372">
        <ele>31.4</ele>
        <time>2020-12-06T08:53:15Z</time>
      </trkpt>
      <trkpt lat="50.76339" lon="3.06359">
        <ele>31.6</ele>
        <time>2020-12-06T08:53:22Z</time>
      </trkpt>
      <trkpt lat="50.76321" lon="3.06355">
        <ele>32.2</ele>
        <time>2020-12-06T08:53:27Z</time>
      </trkpt>
      <trkpt lat="50.76311" lon="3.06373">
        <ele>33.4</ele>
        <time>2020-12-06T08:53:31Z</time>
      </trkpt>
      <trkpt lat="50.76298" lon="3.06395">
        <ele>34.6</ele>
        <time>2020-12-06T08:53:36Z</time>
      </trkpt>
      <trkpt lat="50.76269" lon="3.06434">
        <ele>35.8</ele>
        <time>2020-12-06T08:53:45Z</time>
      </trkpt>
      <trkpt lat="50.76265" lon="3.06437">
        <ele>35.8</ele>
        <time>2020-12-06T08:53:46Z</time>
      </trkpt>
      <trkpt lat="50.76256" lon="3.06441">
        <ele>36</ele>
        <time>2020-12-06T08:53:48Z</time>
      </trkpt>
      <trkpt lat="50.76229" lon="3.06469">
        <ele>36.4</ele>
        <time>2020-12-06T08:53:56Z</time>
      </trkpt>
      <trkpt lat="50.76209" lon="3.06504">
        <ele>36.4</ele>
        <time>2020-12-06T08:54:04Z</time>
      </trkpt>
      <trkpt lat="50.76201" lon="3.06486">
        <ele>36.6</ele>
        <time>2020-12-06T08:54:08Z</time>
      </trkpt>
      <trkpt lat="50.7618" lon="3.06441">
        <ele>36.8</ele>
        <time>2020-12-06T08:54:17Z</time>
      </trkpt>
      <trkpt lat="50.76148" lon="3.06373">
        <ele>38</ele>
        <time>2020-12-06T08:54:31Z</time>
      </trkpt>
      <trkpt lat="50.7613" lon="3.06333">
        <ele>39</ele>
        <time>2020-12-06T08:54:39Z</time>
      </trkpt>
      <trkpt lat="50.76115" lon="3.06289">
        <ele>40.2</ele>
        <time>2020-12-06T08:54:47Z</time>
      </trkpt>
      <trkpt lat="50.76106" lon="3.06244">
        <ele>41.2</ele>
        <time>2020-12-06T08:54:55Z</time>
      </trkpt>
      <trkpt lat="50.76098" lon="3.06209">
        <ele>42.2</ele>
        <time>2020-12-06T08:55:01Z</time>
      </trkpt>
      <trkpt lat="50.76069" lon="3.06137">
        <ele>43.2</ele>
        <time>2020-12-06T08:55:14Z</time>
      </trkpt>
      <trkpt lat="50.76065" lon="3.06132">
        <ele>43.2</ele>
        <time>2020-12-06T08:55:15Z</time>
      </trkpt>
      <trkpt lat="50.76053" lon="3.06116">
        <ele>41.2</ele>
      </trkpt>
      <trkpt lat="50.76038" lon="3.06106">
        <ele>40.5</ele>
      </trkpt>
      <trkpt lat="50.76037" lon="3.06106">
        <ele>40.5</ele>
      </trkpt>
      <trkpt lat="50.76037" lon="3.06107">
        <ele>40.4</ele>
      </trkpt>
      <trkpt lat="50.76014" lon="3.06163">
        <ele>39.7</ele>
      </trkpt>
      <trkpt lat="50.7599" lon="3.06208">
        <ele>38.4</ele>
      </trkpt>
      <trkpt lat="50.75973" lon="3.06251">
        <ele>37.4</ele>
      </trkpt>
      <trkpt lat="50.75809" lon="3.06582">
        <ele>30.7</ele>
      </trkpt>
      <trkpt lat="50.75746" lon="3.0667">
        <ele>28.9</ele>
      </trkpt>
      <trkpt lat="50.75724" lon="3.0667">
        <ele>28.4</ele>
      </trkpt>
      <trkpt lat="50.75602" lon="3.06336">
        <ele>24.2</ele>
      </trkpt>
      <trkpt lat="50.75679" lon="3.0623">
        <ele>26.3</ele>
      </trkpt>
      <trkpt lat="50.75934" lon="3.05922">
        <ele>35.6</ele>
      </trkpt>
      <trkpt lat="50.75963" lon="3.05952">
        <ele>36.7</ele>
      </trkpt>
      <trkpt lat="50.76048" lon="3.0607">
        <ele>40.7</ele>
      </trkpt>
      <trkpt lat="50.76051" lon="3.06067">
        <ele>40.8</ele>
      </trkpt>
      <trkpt lat="50.76048" lon="3.0607">
        <ele>40.7</ele>
      </trkpt>
      <trkpt lat="50.76048" lon="3.0607">
        <ele>40.7</ele>
      </trkpt>
      <trkpt lat="50.76056" lon="3.06059">
        <ele>40.8</ele>
        <time>2020-12-06T08:55:28Z</time>
      </trkpt>
      <trkpt lat="50.76064" lon="3.06042">
        <ele>39.6</ele>
        <time>2020-12-06T08:55:31Z</time>
      </trkpt>
      <trkpt lat="50.76096" lon="3.05973">
        <ele>40</ele>
        <time>2020-12-06T08:55:43Z</time>
      </trkpt>
      <trkpt lat="50.76113" lon="3.05943">
        <ele>40.6</ele>
        <time>2020-12-06T08:55:48Z</time>
      </trkpt>
      <trkpt lat="50.76141" lon="3.0587">
        <ele>41.4</ele>
        <time>2020-12-06T08:55:59Z</time>
      </trkpt>
      <trkpt lat="50.7616" lon="3.0579">
        <ele>41.4</ele>
        <time>2020-12-06T08:56:10Z</time>
      </trkpt>
      <trkpt lat="50.7617" lon="3.05736">
        <ele>41</ele>
        <time>2020-12-06T08:56:17Z</time>
      </trkpt>
      <trkpt lat="50.76184" lon="3.05648">
        <ele>40.6</ele>
        <time>2020-12-06T08:56:29Z</time>
      </trkpt>
      <trkpt lat="50.76198" lon="3.05559">
        <ele>40.4</ele>
        <time>2020-12-06T08:56:42Z</time>
      </trkpt>
      <trkpt lat="50.76206" lon="3.05519">
        <ele>40.4</ele>
        <time>2020-12-06T08:56:48Z</time>
      </trkpt>
      <trkpt lat="50.76211" lon="3.05489">
        <ele>40</ele>
        <time>2020-12-06T08:56:53Z</time>
      </trkpt>
      <trkpt lat="50.762" lon="3.05482">
        <ele>39.8</ele>
        <time>2020-12-06T08:56:56Z</time>
      </trkpt>
      <trkpt lat="50.76195" lon="3.05481">
        <ele>39.8</ele>
        <time>2020-12-06T08:56:57Z</time>
      </trkpt>
      <trkpt lat="50.76137" lon="3.05476">
        <ele>39</ele>
        <time>2020-12-06T08:57:08Z</time>
      </trkpt>
      <trkpt lat="50.76126" lon="3.05478">
        <ele>38.6</ele>
        <time>2020-12-06T08:57:10Z</time>
      </trkpt>
      <trkpt lat="50.76103" lon="3.05485">
        <ele>37.6</ele>
        <time>2020-12-06T08:57:14Z</time>
      </trkpt>
      <trkpt lat="50.76065" lon="3.05497">
        <ele>36.2</ele>
        <time>2020-12-06T08:57:21Z</time>
      </trkpt>
      <trkpt lat="50.7602" lon="3.05503">
        <ele>35.6</ele>
        <time>2020-12-06T08:57:29Z</time>
      </trkpt>
      <trkpt lat="50.76006" lon="3.0549">
        <ele>35.2</ele>
        <time>2020-12-06T08:57:32Z</time>
      </trkpt>
      <trkpt lat="50.75998" lon="3.05466">
        <ele>34.8</ele>
        <time>2020-12-06T08:57:35Z</time>
      </trkpt>
      <trkpt lat="50.75975" lon="3.05383">
        <ele>34.4</ele>
        <time>2020-12-06T08:57:46Z</time>
      </trkpt>
      <trkpt lat="50.75953" lon="3.05304">
        <ele>35</ele>
        <time>2020-12-06T08:57:57Z</time>
      </trkpt>
      <trkpt lat="50.75943" lon="3.05266">
        <ele>35.2</ele>
        <time>2020-12-06T08:58:03Z</time>
      </trkpt>
      <trkpt lat="50.75954" lon="3.05252">
        <ele>35.2</ele>
        <time>2020-12-06T08:58:08Z</time>
      </trkpt>
      <trkpt lat="50.76008" lon="3.05223">
        <ele>35.6</ele>
        <time>2020-12-06T08:58:22Z</time>
      </trkpt>
      <trkpt lat="50.76039" lon="3.05206">
        <ele>36.2</ele>
        <time>2020-12-06T08:58:30Z</time>
      </trkpt>
      <trkpt lat="50.76056" lon="3.05193">
        <ele>37.4</ele>
        <time>2020-12-06T08:58:35Z</time>
      </trkpt>
      <trkpt lat="50.76082" lon="3.05173">
        <ele>38.4</ele>
        <time>2020-12-06T08:58:43Z</time>
      </trkpt>
      <trkpt lat="50.761" lon="3.05156">
        <ele>39.6</ele>
        <time>2020-12-06T08:58:49Z</time>
      </trkpt>
      <trkpt lat="50.76119" lon="3.05138">
        <ele>40.8</ele>
        <time>2020-12-06T08:58:56Z</time>
      </trkpt>
      <trkpt lat="50.76136" lon="3.05123">
        <ele>41.8</ele>
        <time>2020-12-06T08:59:02Z</time>
      </trkpt>
      <trkpt lat="50.76149" lon="3.05115">
        <ele>43</ele>
        <time>2020-12-06T08:59:06Z</time>
      </trkpt>
      <trkpt lat="50.7619" lon="3.05107">
        <ele>44</ele>
        <time>2020-12-06T08:59:18Z</time>
      </trkpt>
      <trkpt lat="50.76215" lon="3.05109">
        <ele>45</ele>
        <time>2020-12-06T08:59:25Z</time>
      </trkpt>
      <trkpt lat="50.76251" lon="3.05115">
        <ele>46.2</ele>
        <time>2020-12-06T08:59:35Z</time>
      </trkpt>
      <trkpt lat="50.76307" lon="3.05132">
        <ele>47.2</ele>
        <time>2020-12-06T08:59:51Z</time>
      </trkpt>
      <trkpt lat="50.76363" lon="3.05128">
        <ele>46.4</ele>
        <time>2020-12-06T09:00:05Z</time>
      </trkpt>
      <trkpt lat="50.76388" lon="3.05121">
        <ele>45.4</ele>
        <time>2020-12-06T09:00:10Z</time>
      </trkpt>
      <trkpt lat="50.76392" lon="3.05117">
        <ele>45</ele>
        <time>2020-12-06T09:00:11Z</time>
      </trkpt>
      <trkpt lat="50.76409" lon="3.0513">
        <ele>47.9</ele>
      </trkpt>
      <trkpt lat="50.76416" lon="3.05321">
        <ele>44.2</ele>
      </trkpt>
      <trkpt lat="50.76514" lon="3.05378">
        <ele>37</ele>
      </trkpt>
      <trkpt lat="50.76611" lon="3.05346">
        <ele>31.1</ele>
      </trkpt>
      <trkpt lat="50.7667" lon="3.05314">
        <ele>28.1</ele>
      </trkpt>
      <trkpt lat="50.7688" lon="3.05232">
        <ele>21.3</ele>
      </trkpt>
      <trkpt lat="50.76879" lon="3.05129">
        <ele>20.9</ele>
      </trkpt>
      <trkpt lat="50.76878" lon="3.04981">
        <ele>20.3</ele>
      </trkpt>
      <trkpt lat="50.76846" lon="3.04844">
        <ele>19.3</ele>
      </trkpt>
      <trkpt lat="50.76818" lon="3.04725">
        <ele>19.5</ele>
      </trkpt>
      <trkpt lat="50.76677" lon="3.04774">
        <ele>28.7</ele>
      </trkpt>
      <trkpt lat="50.76526" lon="3.04761">
        <ele>42.2</ele>
      </trkpt>
      <trkpt lat="50.76411" lon="3.04758">
        <ele>49.4</ele>
      </trkpt>
      <trkpt lat="50.76333" lon="3.04773">
        <ele>53.6</ele>
      </trkpt>
      <trkpt lat="50.76308" lon="3.04787">
        <ele>55.1</ele>
      </trkpt>
      <trkpt lat="50.76287" lon="3.04788">
        <ele>56.2</ele>
      </trkpt>
      <trkpt lat="50.76275" lon="3.04792">
        <ele>56.8</ele>
      </trkpt>
      <trkpt lat="50.76261" lon="3.04799">
        <ele>57.5</ele>
      </trkpt>
      <trkpt lat="50.76249" lon="3.04801">
        <ele>58</ele>
      </trkpt>
      <trkpt lat="50.76237" lon="3.04803">
        <ele>57.8</ele>
      </trkpt>
      <trkpt lat="50.76226" lon="3.04804">
        <ele>57.7</ele>
      </trkpt>
      <trkpt lat="50.76202" lon="3.04811">
        <ele>53</ele>
        <time>2020-12-06T09:01:47Z</time>
      </trkpt>
      <trkpt lat="50.76146" lon="3.04803">
        <ele>52.6</ele>
        <time>2020-12-06T09:01:58Z</time>
      </trkpt>
      <trkpt lat="50.76114" lon="3.04799">
        <ele>51</ele>
        <time>2020-12-06T09:02:03Z</time>
      </trkpt>
      <trkpt lat="50.76088" lon="3.04794">
        <ele>50</ele>
        <time>2020-12-06T09:02:07Z</time>
      </trkpt>
      <trkpt lat="50.76062" lon="3.04784">
        <ele>48.6</ele>
        <time>2020-12-06T09:02:11Z</time>
      </trkpt>
      <trkpt lat="50.76033" lon="3.04775">
        <ele>47.4</ele>
        <time>2020-12-06T09:02:15Z</time>
      </trkpt>
      <trkpt lat="50.76003" lon="3.0477">
        <ele>46.2</ele>
        <time>2020-12-06T09:02:19Z</time>
      </trkpt>
      <trkpt lat="50.75979" lon="3.04774">
        <ele>44.6</ele>
        <time>2020-12-06T09:02:22Z</time>
      </trkpt>
      <trkpt lat="50.75963" lon="3.04779">
        <ele>43.2</ele>
        <time>2020-12-06T09:02:24Z</time>
      </trkpt>
      <trkpt lat="50.7593" lon="3.04791">
        <ele>42</ele>
        <time>2020-12-06T09:02:28Z</time>
      </trkpt>
      <trkpt lat="50.75906" lon="3.048">
        <ele>40.6</ele>
        <time>2020-12-06T09:02:31Z</time>
      </trkpt>
      <trkpt lat="50.75891" lon="3.04807">
        <ele>39.6</ele>
        <time>2020-12-06T09:02:33Z</time>
      </trkpt>
      <trkpt lat="50.75875" lon="3.04814">
        <ele>38.6</ele>
        <time>2020-12-06T09:02:35Z</time>
      </trkpt>
      <trkpt lat="50.75844" lon="3.04826">
        <ele>37.6</ele>
        <time>2020-12-06T09:02:39Z</time>
      </trkpt>
      <trkpt lat="50.75821" lon="3.04835">
        <ele>36.4</ele>
        <time>2020-12-06T09:02:42Z</time>
      </trkpt>
      <trkpt lat="50.7577" lon="3.04859">
        <ele>35.2</ele>
        <time>2020-12-06T09:02:49Z</time>
      </trkpt>
      <trkpt lat="50.75742" lon="3.04875">
        <ele>34.2</ele>
        <time>2020-12-06T09:02:53Z</time>
      </trkpt>
      <trkpt lat="50.75714" lon="3.04892">
        <ele>33</ele>
        <time>2020-12-06T09:02:57Z</time>
      </trkpt>
      <trkpt lat="50.75672" lon="3.04921">
        <ele>32</ele>
        <time>2020-12-06T09:03:03Z</time>
      </trkpt>
      <trkpt lat="50.75666" lon="3.04927">
        <ele>32</ele>
        <time>2020-12-06T09:03:04Z</time>
      </trkpt>
      <trkpt lat="50.75636" lon="3.04959">
        <ele>30.8</ele>
        <time>2020-12-06T09:03:09Z</time>
      </trkpt>
      <trkpt lat="50.75604" lon="3.0499">
        <ele>29.6</ele>
        <time>2020-12-06T09:03:14Z</time>
      </trkpt>
      <trkpt lat="50.75591" lon="3.05003">
        <ele>28.4</ele>
        <time>2020-12-06T09:03:16Z</time>
      </trkpt>
      <trkpt lat="50.75566" lon="3.05029">
        <ele>27.4</ele>
        <time>2020-12-06T09:03:20Z</time>
      </trkpt>
      <trkpt lat="50.75521" lon="3.05074">
        <ele>26.2</ele>
        <time>2020-12-06T09:03:27Z</time>
      </trkpt>
      <trkpt lat="50.75491" lon="3.05105">
        <ele>25.2</ele>
        <time>2020-12-06T09:03:32Z</time>
      </trkpt>
      <trkpt lat="50.75466" lon="3.05127">
        <ele>24.2</ele>
        <time>2020-12-06T09:03:36Z</time>
      </trkpt>
      <trkpt lat="50.75417" lon="3.05168">
        <ele>22.8</ele>
        <time>2020-12-06T09:03:44Z</time>
      </trkpt>
      <trkpt lat="50.75367" lon="3.05209">
        <ele>22.2</ele>
        <time>2020-12-06T09:03:53Z</time>
      </trkpt>
      <trkpt lat="50.7534" lon="3.05227">
        <ele>21.8</ele>
        <time>2020-12-06T09:03:58Z</time>
      </trkpt>
      <trkpt lat="50.75324" lon="3.05234">
        <ele>21.8</ele>
        <time>2020-12-06T09:04:01Z</time>
      </trkpt>
      <trkpt lat="50.75276" lon="3.05256">
        <ele>21.8</ele>
        <time>2020-12-06T09:04:11Z</time>
      </trkpt>
      <trkpt lat="50.75273" lon="3.05265">
        <ele>21.8</ele>
        <time>2020-12-06T09:04:12Z</time>
      </trkpt>
      <trkpt lat="50.75267" lon="3.05282">
        <ele>21.8</ele>
        <time>2020-12-06T09:04:14Z</time>
      </trkpt>
      <trkpt lat="50.75242" lon="3.05311">
        <ele>20.4</ele>
        <time>2020-12-06T09:04:19Z</time>
      </trkpt>
      <trkpt lat="50.75209" lon="3.05341">
        <ele>19.2</ele>
        <time>2020-12-06T09:04:25Z</time>
      </trkpt>
      <trkpt lat="50.75164" lon="3.05388">
        <ele>18</ele>
        <time>2020-12-06T09:04:33Z</time>
      </trkpt>
      <trkpt lat="50.7513" lon="3.05436">
        <ele>17</ele>
        <time>2020-12-06T09:04:40Z</time>
      </trkpt>
      <trkpt lat="50.75127" lon="3.05445">
        <ele>17</ele>
        <time>2020-12-06T09:04:41Z</time>
      </trkpt>
      <trkpt lat="50.7513" lon="3.05473">
        <ele>16.8</ele>
        <time>2020-12-06T09:04:44Z</time>
      </trkpt>
      <trkpt lat="50.75138" lon="3.05509">
        <ele>16</ele>
        <time>2020-12-06T09:04:48Z</time>
      </trkpt>
      <trkpt lat="50.75151" lon="3.05569">
        <ele>15</ele>
        <time>2020-12-06T09:04:55Z</time>
      </trkpt>
      <trkpt lat="50.75169" lon="3.05655">
        <ele>15</ele>
        <time>2020-12-06T09:05:05Z</time>
      </trkpt>
      <trkpt lat="50.75185" lon="3.05724">
        <ele>15.8</ele>
        <time>2020-12-06T09:05:13Z</time>
      </trkpt>
      <trkpt lat="50.75191" lon="3.05738">
        <ele>16</ele>
        <time>2020-12-06T09:05:15Z</time>
      </trkpt>
      <trkpt lat="50.75221" lon="3.0581">
        <ele>16.4</ele>
        <time>2020-12-06T09:05:26Z</time>
      </trkpt>
      <trkpt lat="50.75252" lon="3.05881">
        <ele>17</ele>
        <time>2020-12-06T09:05:37Z</time>
      </trkpt>
      <trkpt lat="50.75287" lon="3.05955">
        <ele>17.4</ele>
        <time>2020-12-06T09:05:50Z</time>
      </trkpt>
      <trkpt lat="50.75321" lon="3.06027">
        <ele>17.4</ele>
        <time>2020-12-06T09:06:02Z</time>
      </trkpt>
      <trkpt lat="50.75356" lon="3.06101">
        <ele>17.4</ele>
        <time>2020-12-06T09:06:15Z</time>
      </trkpt>
      <trkpt lat="50.75377" lon="3.06145">
        <ele>17.4</ele>
        <time>2020-12-06T09:06:23Z</time>
      </trkpt>
      <trkpt lat="50.75409" lon="3.06218">
        <ele>17.6</ele>
        <time>2020-12-06T09:06:36Z</time>
      </trkpt>
      <trkpt lat="50.75442" lon="3.06286">
        <ele>18</ele>
        <time>2020-12-06T09:06:48Z</time>
      </trkpt>
      <trkpt lat="50.75479" lon="3.06353">
        <ele>18.6</ele>
        <time>2020-12-06T09:07:00Z</time>
      </trkpt>
      <trkpt lat="50.75502" lon="3.06393">
        <ele>19</ele>
        <time>2020-12-06T09:07:08Z</time>
      </trkpt>
      <trkpt lat="50.75511" lon="3.06412">
        <ele>19.4</ele>
        <time>2020-12-06T09:07:12Z</time>
      </trkpt>
      <trkpt lat="50.75499" lon="3.06434">
        <ele>19.6</ele>
        <time>2020-12-06T09:07:17Z</time>
      </trkpt>
      <trkpt lat="50.75469" lon="3.06453">
        <ele>20</ele>
        <time>2020-12-06T09:07:24Z</time>
      </trkpt>
      <trkpt lat="50.75414" lon="3.0648">
        <ele>20.2</ele>
        <time>2020-12-06T09:07:35Z</time>
      </trkpt>
      <trkpt lat="50.75362" lon="3.06502">
        <ele>20.4</ele>
        <time>2020-12-06T09:07:46Z</time>
      </trkpt>
      <trkpt lat="50.75346" lon="3.0651">
        <ele>20.8</ele>
        <time>2020-12-06T09:07:50Z</time>
      </trkpt>
      <trkpt lat="50.75329" lon="3.06525">
        <ele>20.8</ele>
        <time>2020-12-06T09:07:54Z</time>
      </trkpt>
      <trkpt lat="50.75285" lon="3.06558">
        <ele>21.2</ele>
        <time>2020-12-06T09:08:04Z</time>
      </trkpt>
      <trkpt lat="50.75277" lon="3.06563">
        <ele>21.2</ele>
        <time>2020-12-06T09:08:06Z</time>
      </trkpt>
      <trkpt lat="50.75266" lon="3.06548">
        <ele>21.4</ele>
        <time>2020-12-06T09:08:10Z</time>
      </trkpt>
      <trkpt lat="50.75233" lon="3.06479">
        <ele>21.2</ele>
        <time>2020-12-06T09:08:22Z</time>
      </trkpt>
      <trkpt lat="50.75211" lon="3.06452">
        <ele>21</ele>
        <time>2020-12-06T09:08:28Z</time>
      </trkpt>
      <trkpt lat="50.75177" lon="3.06465">
        <ele>20.8</ele>
        <time>2020-12-06T09:08:35Z</time>
      </trkpt>
      <trkpt lat="50.75132" lon="3.06517">
        <ele>20.6</ele>
        <time>2020-12-06T09:08:45Z</time>
      </trkpt>
      <trkpt lat="50.75123" lon="3.06526">
        <ele>20.6</ele>
        <time>2020-12-06T09:08:47Z</time>
      </trkpt>
      <trkpt lat="50.75066" lon="3.06528">
        <ele>21.2</ele>
        <time>2020-12-06T09:08:57Z</time>
      </trkpt>
      <trkpt lat="50.7501" lon="3.0651">
        <ele>21.4</ele>
        <time>2020-12-06T09:09:07Z</time>
      </trkpt>
      <trkpt lat="50.74956" lon="3.06482">
        <ele>21</ele>
        <time>2020-12-06T09:09:17Z</time>
      </trkpt>
      <trkpt lat="50.74911" lon="3.06452">
        <ele>20.2</ele>
        <time>2020-12-06T09:09:26Z</time>
      </trkpt>
      <trkpt lat="50.74907" lon="3.06448">
        <ele>20.2</ele>
        <time>2020-12-06T09:09:27Z</time>
      </trkpt>
      <trkpt lat="50.74894" lon="3.06432">
        <ele>20</ele>
        <time>2020-12-06T09:09:30Z</time>
      </trkpt>
      <trkpt lat="50.74873" lon="3.06401">
        <ele>19.6</ele>
        <time>2020-12-06T09:09:35Z</time>
      </trkpt>
      <trkpt lat="50.74854" lon="3.0635">
        <ele>19</ele>
        <time>2020-12-06T09:09:41Z</time>
      </trkpt>
      <trkpt lat="50.74837" lon="3.06304">
        <ele>18</ele>
        <time>2020-12-06T09:09:46Z</time>
      </trkpt>
      <trkpt lat="50.74823" lon="3.06269">
        <ele>17.2</ele>
        <time>2020-12-06T09:09:50Z</time>
      </trkpt>
      <trkpt lat="50.74814" lon="3.06224">
        <ele>17</ele>
        <time>2020-12-06T09:09:55Z</time>
      </trkpt>
      <trkpt lat="50.74781" lon="3.06155">
        <ele>17.2</ele>
        <time>2020-12-06T09:10:04Z</time>
      </trkpt>
      <trkpt lat="50.74754" lon="3.0608">
        <ele>17.2</ele>
        <time>2020-12-06T09:10:12Z</time>
      </trkpt>
      <trkpt lat="50.74727" lon="3.05998">
        <ele>17.4</ele>
        <time>2020-12-06T09:10:21Z</time>
      </trkpt>
      <trkpt lat="50.74698" lon="3.05917">
        <ele>17.4</ele>
        <time>2020-12-06T09:10:31Z</time>
      </trkpt>
      <trkpt lat="50.74681" lon="3.05874">
        <ele>18</ele>
        <time>2020-12-06T09:10:37Z</time>
      </trkpt>
      <trkpt lat="50.74669" lon="3.05858">
        <ele>18.2</ele>
        <time>2020-12-06T09:10:41Z</time>
      </trkpt>
      <trkpt lat="50.74652" lon="3.05869">
        <ele>18.4</ele>
        <time>2020-12-06T09:10:46Z</time>
      </trkpt>
      <trkpt lat="50.74607" lon="3.05919">
        <ele>18.4</ele>
        <time>2020-12-06T09:10:56Z</time>
      </trkpt>
      <trkpt lat="50.74553" lon="3.0596">
        <ele>16.8</ele>
        <time>2020-12-06T09:11:05Z</time>
      </trkpt>
      <trkpt lat="50.74499" lon="3.05999">
        <ele>15.8</ele>
        <time>2020-12-06T09:11:14Z</time>
      </trkpt>
      <trkpt lat="50.74493" lon="3.06003">
        <ele>15.8</ele>
        <time>2020-12-06T09:11:15Z</time>
      </trkpt>
      <trkpt lat="50.74487" lon="3.06008">
        <ele>15.8</ele>
        <time>2020-12-06T09:11:16Z</time>
      </trkpt>
      <trkpt lat="50.74436" lon="3.06051">
        <ele>15.2</ele>
        <time>2020-12-06T09:11:25Z</time>
      </trkpt>
      <trkpt lat="50.74383" lon="3.06086">
        <ele>14.8</ele>
        <time>2020-12-06T09:11:35Z</time>
      </trkpt>
      <trkpt lat="50.74373" lon="3.06091">
        <ele>15</ele>
        <time>2020-12-06T09:11:37Z</time>
      </trkpt>
      <trkpt lat="50.74353" lon="3.06064">
        <ele>15.4</ele>
        <time>2020-12-06T09:11:43Z</time>
      </trkpt>
      <trkpt lat="50.74328" lon="3.05985">
        <ele>15.6</ele>
        <time>2020-12-06T09:11:52Z</time>
      </trkpt>
      <trkpt lat="50.74304" lon="3.05916">
        <ele>14.6</ele>
        <time>2020-12-06T09:11:59Z</time>
      </trkpt>
      <trkpt lat="50.74279" lon="3.05838">
        <ele>13.8</ele>
        <time>2020-12-06T09:12:07Z</time>
      </trkpt>
      <trkpt lat="50.74273" lon="3.0582">
        <ele>13.6</ele>
        <time>2020-12-06T09:12:09Z</time>
      </trkpt>
      <trkpt lat="50.74247" lon="3.05737">
        <ele>13.2</ele>
        <time>2020-12-06T09:12:19Z</time>
      </trkpt>
      <trkpt lat="50.74245" lon="3.05729">
        <ele>13.2</ele>
        <time>2020-12-06T09:12:20Z</time>
      </trkpt>
      <trkpt lat="50.74224" lon="3.05705">
        <ele>13.4</ele>
        <time>2020-12-06T09:12:25Z</time>
      </trkpt>
      <trkpt lat="50.74173" lon="3.05664">
        <ele>13.4</ele>
        <time>2020-12-06T09:12:35Z</time>
      </trkpt>
      <trkpt lat="50.74137" lon="3.05634">
        <ele>13.2</ele>
        <time>2020-12-06T09:12:42Z</time>
      </trkpt>
      <trkpt lat="50.74113" lon="3.05638">
        <ele>13.4</ele>
        <time>2020-12-06T09:12:51Z</time>
      </trkpt>
      <trkpt lat="50.7411" lon="3.05641">
        <ele>13.8</ele>
        <time>2020-12-06T09:12:55Z</time>
      </trkpt>
      <trkpt lat="50.74109" lon="3.05641">
        <ele>14</ele>
        <time>2020-12-06T09:12:56Z</time>
      </trkpt>
      <trkpt lat="50.74096" lon="3.05648">
        <ele>14.2</ele>
        <time>2020-12-06T09:13:05Z</time>
      </trkpt>
      <trkpt lat="50.74092" lon="3.05647">
        <ele>14.2</ele>
        <time>2020-12-06T09:16:19Z</time>
      </trkpt>
      <trkpt lat="50.74061" lon="3.05643">
        <ele>14</ele>
        <time>2020-12-06T09:16:30Z</time>
      </trkpt>
      <trkpt lat="50.74054" lon="3.05619">
        <ele>13.6</ele>
        <time>2020-12-06T09:16:34Z</time>
      </trkpt>
      <trkpt lat="50.74052" lon="3.05611">
        <ele>13.6</ele>
        <time>2020-12-06T09:16:35Z</time>
      </trkpt>
      <trkpt lat="50.74034" lon="3.05524">
        <ele>13.2</ele>
        <time>2020-12-06T09:16:46Z</time>
      </trkpt>
      <trkpt lat="50.74027" lon="3.05501">
        <ele>13.2</ele>
        <time>2020-12-06T09:16:49Z</time>
      </trkpt>
      <trkpt lat="50.74035" lon="3.05472">
        <ele>13</ele>
        <time>2020-12-06T09:16:53Z</time>
      </trkpt>
      <trkpt lat="50.74038" lon="3.05465">
        <ele>13</ele>
        <time>2020-12-06T09:16:54Z</time>
      </trkpt>
      <trkpt lat="50.74036" lon="3.05434">
        <ele>13</ele>
        <time>2020-12-06T09:16:58Z</time>
      </trkpt>
      <trkpt lat="50.74017" lon="3.05347">
        <ele>12.8</ele>
        <time>2020-12-06T09:17:08Z</time>
      </trkpt>
      <trkpt lat="50.73988" lon="3.05266">
        <ele>12.8</ele>
        <time>2020-12-06T09:17:18Z</time>
      </trkpt>
      <trkpt lat="50.73965" lon="3.05208">
        <ele>12.8</ele>
        <time>2020-12-06T09:17:25Z</time>
      </trkpt>
      <trkpt lat="50.73968" lon="3.05169">
        <ele>12.6</ele>
        <time>2020-12-06T09:17:30Z</time>
      </trkpt>
      <trkpt lat="50.7397" lon="3.05163">
        <ele>12.6</ele>
        <time>2020-12-06T09:17:31Z</time>
      </trkpt>
      <trkpt lat="50.73968" lon="3.05072">
        <ele>13.4</ele>
        <time>2020-12-06T09:17:43Z</time>
      </trkpt>
      <trkpt lat="50.73966" lon="3.04981">
        <ele>13.6</ele>
        <time>2020-12-06T09:17:56Z</time>
      </trkpt>
      <trkpt lat="50.73965" lon="3.04893">
        <ele>13.6</ele>
        <time>2020-12-06T09:18:09Z</time>
      </trkpt>
      <trkpt lat="50.73962" lon="3.04805">
        <ele>13.8</ele>
        <time>2020-12-06T09:18:24Z</time>
      </trkpt>
      <trkpt lat="50.73939" lon="3.04742">
        <ele>13.6</ele>
        <time>2020-12-06T09:18:42Z</time>
      </trkpt>
      <trkpt lat="50.73883" lon="3.04755">
        <ele>13.4</ele>
        <time>2020-12-06T09:18:57Z</time>
      </trkpt>
      <trkpt lat="50.73876" lon="3.04753">
        <ele>13.2</ele>
        <time>2020-12-06T09:18:59Z</time>
      </trkpt>
      <trkpt lat="50.73874" lon="3.04674">
        <ele>13</ele>
        <time>2020-12-06T09:19:13Z</time>
      </trkpt>
      <trkpt lat="50.73864" lon="3.04669">
        <ele>13.2</ele>
        <time>2020-12-06T09:19:17Z</time>
      </trkpt>
      <trkpt lat="50.73811" lon="3.04688">
        <ele>13</ele>
        <time>2020-12-06T09:19:32Z</time>
      </trkpt>
      <trkpt lat="50.73756" lon="3.04706">
        <ele>13.4</ele>
        <time>2020-12-06T09:19:49Z</time>
      </trkpt>
      <trkpt lat="50.73702" lon="3.04721">
        <ele>13.8</ele>
        <time>2020-12-06T09:20:11Z</time>
      </trkpt>
      <trkpt lat="50.737" lon="3.04719">
        <ele>13.8</ele>
        <time>2020-12-06T09:20:12Z</time>
      </trkpt>
      <trkpt lat="50.73696" lon="3.047">
        <ele>13.8</ele>
        <time>2020-12-06T09:20:16Z</time>
      </trkpt>
      <trkpt lat="50.73693" lon="3.04655">
        <ele>13.6</ele>
        <time>2020-12-06T09:20:24Z</time>
      </trkpt>
      <trkpt lat="50.73688" lon="3.04565">
        <ele>13</ele>
        <time>2020-12-06T09:20:37Z</time>
      </trkpt>
      <trkpt lat="50.73684" lon="3.04479">
        <ele>13.4</ele>
        <time>2020-12-06T09:20:51Z</time>
      </trkpt>
      <trkpt lat="50.73679" lon="3.04463">
        <ele>13.2</ele>
        <time>2020-12-06T09:20:55Z</time>
      </trkpt>
      <trkpt lat="50.73631" lon="3.04502">
        <ele>13</ele>
        <time>2020-12-06T09:21:10Z</time>
      </trkpt>
      <trkpt lat="50.73596" lon="3.0453">
        <ele>13</ele>
        <time>2020-12-06T09:21:19Z</time>
      </trkpt>
      <trkpt lat="50.73597" lon="3.04565">
        <ele>12.8</ele>
        <time>2020-12-06T09:21:24Z</time>
      </trkpt>
      <trkpt lat="50.73601" lon="3.04605">
        <ele>12.2</ele>
        <time>2020-12-06T09:21:29Z</time>
      </trkpt>
      <trkpt lat="50.73609" lon="3.04668">
        <ele>12</ele>
        <time>2020-12-06T09:21:37Z</time>
      </trkpt>
      <trkpt lat="50.73611" lon="3.04682">
        <ele>12</ele>
        <time>2020-12-06T09:21:39Z</time>
      </trkpt>
      <trkpt lat="50.73616" lon="3.04739">
        <ele>12</ele>
        <time>2020-12-06T09:21:46Z</time>
      </trkpt>
      <trkpt lat="50.73623" lon="3.04814">
        <ele>12.4</ele>
        <time>2020-12-06T09:21:55Z</time>
      </trkpt>
      <trkpt lat="50.73607" lon="3.04836">
        <ele>12.6</ele>
        <time>2020-12-06T09:22:00Z</time>
      </trkpt>
      <trkpt lat="50.73588" lon="3.04845">
        <ele>12.8</ele>
        <time>2020-12-06T09:22:04Z</time>
      </trkpt>
      <trkpt lat="50.73582" lon="3.04877">
        <ele>12.8</ele>
        <time>2020-12-06T09:22:09Z</time>
      </trkpt>
      <trkpt lat="50.73581" lon="3.04895">
        <ele>12.8</ele>
        <time>2020-12-06T09:22:11Z</time>
      </trkpt>
      <trkpt lat="50.73582" lon="3.04931">
        <ele>12.6</ele>
        <time>2020-12-06T09:22:15Z</time>
      </trkpt>
      <trkpt lat="50.73587" lon="3.04977">
        <ele>12.2</ele>
        <time>2020-12-06T09:22:20Z</time>
      </trkpt>
      <trkpt lat="50.73582" lon="3.05011">
        <ele>12.2</ele>
        <time>2020-12-06T09:22:24Z</time>
      </trkpt>
      <trkpt lat="50.73559" lon="3.05091">
        <ele>13.4</ele>
        <time>2020-12-06T09:22:34Z</time>
      </trkpt>
      <trkpt lat="50.73543" lon="3.05172">
        <ele>13.8</ele>
        <time>2020-12-06T09:22:44Z</time>
      </trkpt>
      <trkpt lat="50.7353" lon="3.05256">
        <ele>14.2</ele>
        <time>2020-12-06T09:22:55Z</time>
      </trkpt>
      <trkpt lat="50.73524" lon="3.05305">
        <ele>14.4</ele>
        <time>2020-12-06T09:23:02Z</time>
      </trkpt>
      <trkpt lat="50.73518" lon="3.05341">
        <ele>14.4</ele>
        <time>2020-12-06T09:23:07Z</time>
      </trkpt>
      <trkpt lat="50.73483" lon="3.05411">
        <ele>14.2</ele>
        <time>2020-12-06T09:23:19Z</time>
      </trkpt>
      <trkpt lat="50.73477" lon="3.05423">
        <ele>13.8</ele>
        <time>2020-12-06T09:23:21Z</time>
      </trkpt>
      <trkpt lat="50.73451" lon="3.05401">
        <ele>18.9</ele>
      </trkpt>
      <trkpt lat="50.73384" lon="3.05312">
        <ele>20.6</ele>
      </trkpt>
      <trkpt lat="50.73322" lon="3.05114">
        <ele>19.4</ele>
      </trkpt>
      <trkpt lat="50.73298" lon="3.05015">
        <ele>18.2</ele>
      </trkpt>
      <trkpt lat="50.73293" lon="3.04949">
        <ele>18.3</ele>
      </trkpt>
      <trkpt lat="50.73279" lon="3.04816">
        <ele>18.5</ele>
      </trkpt>
      <trkpt lat="50.73327" lon="3.04765">
        <ele>18</ele>
      </trkpt>
      <trkpt lat="50.73314" lon="3.04693">
        <ele>18</ele>
      </trkpt>
      <trkpt lat="50.73252" lon="3.04228">
        <ele>16</ele>
      </trkpt>
      <trkpt lat="50.73237" lon="3.04097">
        <ele>16.7</ele>
      </trkpt>
      <trkpt lat="50.73214" lon="3.0396">
        <ele>16.6</ele>
      </trkpt>
      <trkpt lat="50.73181" lon="3.0392">
        <ele>16.2</ele>
      </trkpt>
      <trkpt lat="50.73136" lon="3.03889">
        <ele>16</ele>
      </trkpt>
      <trkpt lat="50.73098" lon="3.039">
        <ele>16</ele>
      </trkpt>
      <trkpt lat="50.73033" lon="3.03953">
        <ele>16.6</ele>
      </trkpt>
      <trkpt lat="50.72987" lon="3.03985">
        <ele>16.9</ele>
      </trkpt>
      <trkpt lat="50.72979" lon="3.03954">
        <ele>16.9</ele>
      </trkpt>
      <trkpt lat="50.72974" lon="3.03914">
        <ele>17</ele>
      </trkpt>
      <trkpt lat="50.72957" lon="3.03903">
        <ele>17</ele>
      </trkpt>
      <trkpt lat="50.72906" lon="3.03799">
        <ele>16.6</ele>
      </trkpt>
      <trkpt lat="50.72829" lon="3.03723">
        <ele>17</ele>
      </trkpt>
      <trkpt lat="50.72687" lon="3.03557">
        <ele>16.2</ele>
      </trkpt>
      <trkpt lat="50.72626" lon="3.03658">
        <ele>16.5</ele>
      </trkpt>
      <trkpt lat="50.72612" lon="3.03673">
        <ele>16.3</ele>
      </trkpt>
      <trkpt lat="50.72469" lon="3.03749">
        <ele>17.4</ele>
      </trkpt>
      <trkpt lat="50.72441" lon="3.03907">
        <ele>17.7</ele>
      </trkpt>
      <trkpt lat="50.72396" lon="3.04164">
        <ele>18.5</ele>
      </trkpt>
      <trkpt lat="50.72311" lon="3.04613">
        <ele>17.3</ele>
      </trkpt>
      <trkpt lat="50.72281" lon="3.04749">
        <ele>17.4</ele>
      </trkpt>
      <trkpt lat="50.72296" lon="3.0482">
        <ele>17.5</ele>
      </trkpt>
      <trkpt lat="50.72351" lon="3.04963">
        <ele>16.5</ele>
      </trkpt>
      <trkpt lat="50.72372" lon="3.05019">
        <ele>16.5</ele>
      </trkpt>
      <trkpt lat="50.72297" lon="3.05133">
        <ele>17</ele>
      </trkpt>
      <trkpt lat="50.72314" lon="3.05197">
        <ele>17.2</ele>
      </trkpt>
      <trkpt lat="50.72294" lon="3.05277">
        <ele>17.6</ele>
      </trkpt>
      <trkpt lat="50.72243" lon="3.05318">
        <ele>18</ele>
      </trkpt>
      <trkpt lat="50.7223" lon="3.05345">
        <ele>18</ele>
      </trkpt>
      <trkpt lat="50.72289" lon="3.05693">
        <ele>18.9</ele>
      </trkpt>
      <trkpt lat="50.72101" lon="3.05936">
        <ele>20.1</ele>
      </trkpt>
      <trkpt lat="50.71881" lon="3.0612">
        <ele>20.2</ele>
      </trkpt>
      <trkpt lat="50.71962" lon="3.06137">
        <ele>20.6</ele>
      </trkpt>
      <trkpt lat="50.72051" lon="3.06134">
        <ele>21.1</ele>
      </trkpt>
      <trkpt lat="50.72269" lon="3.06095">
        <ele>19.1</ele>
      </trkpt>
      <trkpt lat="50.72401" lon="3.05987">
        <ele>18.8</ele>
      </trkpt>
      <trkpt lat="50.72538" lon="3.05983">
        <ele>19</ele>
      </trkpt>
      <trkpt lat="50.72547" lon="3.06013">
        <ele>14.6</ele>
        <time>2020-12-06T09:29:51Z</time>
      </trkpt>
      <trkpt lat="50.72573" lon="3.06095">
        <ele>14.6</ele>
        <time>2020-12-06T09:30:03Z</time>
      </trkpt>
      <trkpt lat="50.72589" lon="3.06144">
        <ele>14.6</ele>
        <time>2020-12-06T09:30:10Z</time>
      </trkpt>
      <trkpt lat="50.72594" lon="3.06157">
        <ele>14.4</ele>
        <time>2020-12-06T09:30:12Z</time>
      </trkpt>
      <trkpt lat="50.72622" lon="3.06237">
        <ele>14</ele>
        <time>2020-12-06T09:30:24Z</time>
      </trkpt>
      <trkpt lat="50.72651" lon="3.06315">
        <ele>14</ele>
        <time>2020-12-06T09:30:37Z</time>
      </trkpt>
      <trkpt lat="50.72653" lon="3.06321">
        <ele>14</ele>
        <time>2020-12-06T09:30:38Z</time>
      </trkpt>
      <trkpt lat="50.72681" lon="3.064">
        <ele>14.4</ele>
        <time>2020-12-06T09:30:52Z</time>
      </trkpt>
      <trkpt lat="50.72707" lon="3.06474">
        <ele>15.4</ele>
        <time>2020-12-06T09:31:07Z</time>
      </trkpt>
      <trkpt lat="50.72713" lon="3.06497">
        <ele>15.4</ele>
        <time>2020-12-06T09:31:12Z</time>
      </trkpt>
      <trkpt lat="50.72701" lon="3.06508">
        <ele>15.8</ele>
        <time>2020-12-06T09:31:17Z</time>
      </trkpt>
      <trkpt lat="50.72698" lon="3.06509">
        <ele>15.8</ele>
        <time>2020-12-06T09:31:18Z</time>
      </trkpt>
      <trkpt lat="50.72647" lon="3.06537">
        <ele>16.8</ele>
        <time>2020-12-06T09:31:31Z</time>
      </trkpt>
      <trkpt lat="50.72619" lon="3.06551">
        <ele>16.8</ele>
        <time>2020-12-06T09:31:41Z</time>
      </trkpt>
      <trkpt lat="50.72568" lon="3.0658">
        <ele>16.8</ele>
        <time>2020-12-06T09:31:58Z</time>
      </trkpt>
      <trkpt lat="50.72559" lon="3.066">
        <ele>16.4</ele>
        <time>2020-12-06T09:32:03Z</time>
      </trkpt>
      <trkpt lat="50.72553" lon="3.06688">
        <ele>16.2</ele>
        <time>2020-12-06T09:32:16Z</time>
      </trkpt>
      <trkpt lat="50.72545" lon="3.06778">
        <ele>16.2</ele>
        <time>2020-12-06T09:32:29Z</time>
      </trkpt>
      <trkpt lat="50.72538" lon="3.06853">
        <ele>17.8</ele>
        <time>2020-12-06T09:32:42Z</time>
      </trkpt>
      <trkpt lat="50.72535" lon="3.06906">
        <ele>18.8</ele>
        <time>2020-12-06T09:32:52Z</time>
      </trkpt>
      <trkpt lat="50.72556" lon="3.06986">
        <ele>19</ele>
        <time>2020-12-06T09:33:07Z</time>
      </trkpt>
      <trkpt lat="50.72572" lon="3.07052">
        <ele>19.8</ele>
        <time>2020-12-06T09:33:19Z</time>
      </trkpt>
      <trkpt lat="50.72574" lon="3.07058">
        <ele>20.2</ele>
        <time>2020-12-06T09:33:20Z</time>
      </trkpt>
      <trkpt lat="50.7259" lon="3.07125">
        <ele>20.8</ele>
        <time>2020-12-06T09:33:33Z</time>
      </trkpt>
      <trkpt lat="50.72607" lon="3.07173">
        <ele>21.6</ele>
        <time>2020-12-06T09:33:44Z</time>
      </trkpt>
      <trkpt lat="50.72633" lon="3.07251">
        <ele>22.6</ele>
        <time>2020-12-06T09:34:01Z</time>
      </trkpt>
      <trkpt lat="50.72643" lon="3.07275">
        <ele>22.6</ele>
        <time>2020-12-06T09:34:06Z</time>
      </trkpt>
      <trkpt lat="50.72688" lon="3.07324">
        <ele>23.2</ele>
        <time>2020-12-06T09:34:19Z</time>
      </trkpt>
      <trkpt lat="50.72715" lon="3.07349">
        <ele>23.8</ele>
        <time>2020-12-06T09:34:26Z</time>
      </trkpt>
      <trkpt lat="50.72752" lon="3.07376">
        <ele>24.8</ele>
        <time>2020-12-06T09:34:36Z</time>
      </trkpt>
      <trkpt lat="50.72772" lon="3.07393">
        <ele>26</ele>
        <time>2020-12-06T09:34:42Z</time>
      </trkpt>
      <trkpt lat="50.72798" lon="3.07417">
        <ele>27</ele>
        <time>2020-12-06T09:34:50Z</time>
      </trkpt>
      <trkpt lat="50.72826" lon="3.07434">
        <ele>28</ele>
        <time>2020-12-06T09:34:58Z</time>
      </trkpt>
      <trkpt lat="50.72849" lon="3.0744">
        <ele>29</ele>
        <time>2020-12-06T09:35:04Z</time>
      </trkpt>
      <trkpt lat="50.72872" lon="3.07442">
        <ele>30.2</ele>
        <time>2020-12-06T09:35:10Z</time>
      </trkpt>
      <trkpt lat="50.72886" lon="3.0744">
        <ele>31.2</ele>
        <time>2020-12-06T09:35:14Z</time>
      </trkpt>
      <trkpt lat="50.72919" lon="3.07432">
        <ele>32.2</ele>
        <time>2020-12-06T09:35:23Z</time>
      </trkpt>
      <trkpt lat="50.72945" lon="3.07422">
        <ele>33.4</ele>
        <time>2020-12-06T09:35:30Z</time>
      </trkpt>
      <trkpt lat="50.7296" lon="3.07423">
        <ele>34.4</ele>
        <time>2020-12-06T09:35:34Z</time>
      </trkpt>
      <trkpt lat="50.7299" lon="3.07443">
        <ele>35.6</ele>
        <time>2020-12-06T09:35:43Z</time>
      </trkpt>
      <trkpt lat="50.73026" lon="3.07474">
        <ele>36.6</ele>
        <time>2020-12-06T09:35:53Z</time>
      </trkpt>
      <trkpt lat="50.73059" lon="3.07506">
        <ele>37.6</ele>
        <time>2020-12-06T09:36:03Z</time>
      </trkpt>
      <trkpt lat="50.73106" lon="3.07552">
        <ele>38</ele>
        <time>2020-12-06T09:36:17Z</time>
      </trkpt>
      <trkpt lat="50.73152" lon="3.07601">
        <ele>38.2</ele>
        <time>2020-12-06T09:36:32Z</time>
      </trkpt>
      <trkpt lat="50.73168" lon="3.07617">
        <ele>38.6</ele>
        <time>2020-12-06T09:36:37Z</time>
      </trkpt>
      <trkpt lat="50.73216" lon="3.07656">
        <ele>39.6</ele>
        <time>2020-12-06T09:36:51Z</time>
      </trkpt>
      <trkpt lat="50.73219" lon="3.07658">
        <ele>39.8</ele>
        <time>2020-12-06T09:36:52Z</time>
      </trkpt>
      <trkpt lat="50.73265" lon="3.07696">
        <ele>40.8</ele>
        <time>2020-12-06T09:37:05Z</time>
      </trkpt>
      <trkpt lat="50.73299" lon="3.07757">
        <ele>44</ele>
      </trkpt>
      <trkpt lat="50.73371" lon="3.07675">
        <ele>47.7</ele>
      </trkpt>
      <trkpt lat="50.73478" lon="3.0775">
        <ele>46.7</ele>
      </trkpt>
      <trkpt lat="50.7352" lon="3.07705">
        <ele>47.3</ele>
      </trkpt>
      <trkpt lat="50.73636" lon="3.0778">
        <ele>47.8</ele>
      </trkpt>
      <trkpt lat="50.73674" lon="3.07806">
        <ele>49</ele>
      </trkpt>
      <trkpt lat="50.73703" lon="3.07759">
        <ele>46.9</ele>
      </trkpt>
      <trkpt lat="50.73844" lon="3.07995">
        <ele>49.5</ele>
      </trkpt>
      <trkpt lat="50.73842" lon="3.08083">
        <ele>47.9</ele>
      </trkpt>
      <trkpt lat="50.73868" lon="3.08106">
        <ele>47.2</ele>
      </trkpt>
      <trkpt lat="50.73945" lon="3.08243">
        <ele>44.4</ele>
      </trkpt>
      <trkpt lat="50.74022" lon="3.08357">
        <ele>41.7</ele>
      </trkpt>
      <trkpt lat="50.7394" lon="3.08567">
        <ele>41.3</ele>
      </trkpt>
      <trkpt lat="50.73978" lon="3.08609">
        <ele>41.4</ele>
      </trkpt>
      <trkpt lat="50.73942" lon="3.0871">
        <ele>40.1</ele>
      </trkpt>
      <trkpt lat="50.73939" lon="3.08761">
        <ele>40</ele>
      </trkpt>
      <trkpt lat="50.73962" lon="3.08827">
        <ele>39.5</ele>
      </trkpt>
      <trkpt lat="50.7403" lon="3.08921">
        <ele>36.5</ele>
      </trkpt>
      <trkpt lat="50.73935" lon="3.09084">
        <ele>34.8</ele>
      </trkpt>
      <trkpt lat="50.73892" lon="3.09032">
        <ele>35.7</ele>
      </trkpt>
      <trkpt lat="50.73835" lon="3.09147">
        <ele>35.2</ele>
      </trkpt>
      <trkpt lat="50.73793" lon="3.09071">
        <ele>36.5</ele>
      </trkpt>
      <trkpt lat="50.73609" lon="3.09416">
        <ele>35.7</ele>
      </trkpt>
      <trkpt lat="50.73616" lon="3.09537">
        <ele>34.6</ele>
      </trkpt>
      <trkpt lat="50.7367" lon="3.09618">
        <ele>33.6</ele>
      </trkpt>
      <trkpt lat="50.73665" lon="3.0974">
        <ele>33</ele>
      </trkpt>
      <trkpt lat="50.7368" lon="3.09764">
        <ele>33</ele>
      </trkpt>
      <trkpt lat="50.73681" lon="3.09899">
        <ele>32.8</ele>
      </trkpt>
      <trkpt lat="50.73659" lon="3.09928">
        <ele>32.9</ele>
      </trkpt>
      <trkpt lat="50.7364" lon="3.09958">
        <ele>32.5</ele>
      </trkpt>
      <trkpt lat="50.73588" lon="3.09897">
        <ele>33</ele>
      </trkpt>
      <trkpt lat="50.73521" lon="3.09833">
        <ele>32.2</ele>
      </trkpt>
      <trkpt lat="50.73454" lon="3.09921">
        <ele>32</ele>
      </trkpt>
      <trkpt lat="50.73396" lon="3.10032">
        <ele>31.3</ele>
      </trkpt>
      <trkpt lat="50.73369" lon="3.10099">
        <ele>31.6</ele>
      </trkpt>
      <trkpt lat="50.73351" lon="3.10137">
        <ele>31.9</ele>
      </trkpt>
      <trkpt lat="50.73291" lon="3.1021">
        <ele>33.5</ele>
      </trkpt>
      <trkpt lat="50.73225" lon="3.10234">
        <ele>35.6</ele>
      </trkpt>
      <trkpt lat="50.73184" lon="3.1023">
        <ele>36.6</ele>
      </trkpt>
      <trkpt lat="50.73142" lon="3.10204">
        <ele>37.3</ele>
      </trkpt>
      <trkpt lat="50.73037" lon="3.10071">
        <ele>37.9</ele>
      </trkpt>
      <trkpt lat="50.72942" lon="3.09874">
        <ele>37.7</ele>
      </trkpt>
      <trkpt lat="50.72926" lon="3.09862">
        <ele>37.9</ele>
      </trkpt>
      <trkpt lat="50.72916" lon="3.09848">
        <ele>38</ele>
      </trkpt>
      <trkpt lat="50.7288" lon="3.09701">
        <ele>36.8</ele>
      </trkpt>
      <trkpt lat="50.72832" lon="3.0957">
        <ele>35.9</ele>
      </trkpt>
      <trkpt lat="50.728" lon="3.09651">
        <ele>35.6</ele>
      </trkpt>
      <trkpt lat="50.72668" lon="3.09848">
        <ele>36.2</ele>
      </trkpt>
      <trkpt lat="50.72648" lon="3.09871">
        <ele>36</ele>
      </trkpt>
      <trkpt lat="50.72681" lon="3.10015">
        <ele>38.8</ele>
      </trkpt>
      <trkpt lat="50.72726" lon="3.10226">
        <ele>39</ele>
      </trkpt>
      <trkpt lat="50.72786" lon="3.1035">
        <ele>40.2</ele>
      </trkpt>
      <trkpt lat="50.72698" lon="3.1044">
        <ele>41.3</ele>
      </trkpt>
      <trkpt lat="50.72648" lon="3.10493">
        <ele>42.5</ele>
      </trkpt>
      <trkpt lat="50.72625" lon="3.10517">
        <ele>43.9</ele>
      </trkpt>
      <trkpt lat="50.72619" lon="3.10517">
        <ele>44.1</ele>
      </trkpt>
      <trkpt lat="50.72604" lon="3.10417">
        <ele>41</ele>
      </trkpt>
      <trkpt lat="50.72594" lon="3.10385">
        <ele>40</ele>
      </trkpt>
      <trkpt lat="50.72575" lon="3.10373">
        <ele>39.4</ele>
      </trkpt>
      <trkpt lat="50.72414" lon="3.10366">
        <ele>39.6</ele>
      </trkpt>
      <trkpt lat="50.7237" lon="3.1031">
        <ele>38</ele>
      </trkpt>
      <trkpt lat="50.7234" lon="3.10228">
        <ele>36.7</ele>
      </trkpt>
      <trkpt lat="50.72314" lon="3.10191">
        <ele>36.3</ele>
      </trkpt>
      <trkpt lat="50.72303" lon="3.10147">
        <ele>35.7</ele>
      </trkpt>
      <trkpt lat="50.723" lon="3.10085">
        <ele>34.8</ele>
      </trkpt>
      <trkpt lat="50.72295" lon="3.10072">
        <ele>34.9</ele>
      </trkpt>
      <trkpt lat="50.72274" lon="3.10073">
        <ele>35.4</ele>
      </trkpt>
      <trkpt lat="50.72264" lon="3.10012">
        <ele>35.5</ele>
      </trkpt>
      <trkpt lat="50.72249" lon="3.09969">
        <ele>36.4</ele>
      </trkpt>
      <trkpt lat="50.72235" lon="3.09904">
        <ele>37.5</ele>
      </trkpt>
      <trkpt lat="50.7219" lon="3.09733">
        <ele>37.2</ele>
      </trkpt>
      <trkpt lat="50.7217" lon="3.0967">
        <ele>36.9</ele>
      </trkpt>
      <trkpt lat="50.72148" lon="3.09582">
        <ele>37.2</ele>
      </trkpt>
      <trkpt lat="50.72141" lon="3.09541">
        <ele>37.3</ele>
      </trkpt>
      <trkpt lat="50.72135" lon="3.09517">
        <ele>37.4</ele>
      </trkpt>
      <trkpt lat="50.72098" lon="3.09514">
        <ele>37.8</ele>
      </trkpt>
      <trkpt lat="50.72063" lon="3.095">
        <ele>38.2</ele>
      </trkpt>
      <trkpt lat="50.72038" lon="3.09481">
        <ele>38.5</ele>
      </trkpt>
      <trkpt lat="50.72023" lon="3.09457">
        <ele>38.5</ele>
      </trkpt>
      <trkpt lat="50.72002" lon="3.09402">
        <ele>38</ele>
      </trkpt>
      <trkpt lat="50.71994" lon="3.09343">
        <ele>38</ele>
      </trkpt>
      <trkpt lat="50.71991" lon="3.09276">
        <ele>36.6</ele>
      </trkpt>
      <trkpt lat="50.7198" lon="3.09136">
        <ele>34</ele>
      </trkpt>
      <trkpt lat="50.71984" lon="3.09033">
        <ele>32.1</ele>
      </trkpt>
      <trkpt lat="50.71995" lon="3.08895">
        <ele>31.7</ele>
      </trkpt>
      <trkpt lat="50.71964" lon="3.08763">
        <ele>28.5</ele>
      </trkpt>
      <trkpt lat="50.72177" lon="3.08621">
        <ele>25.9</ele>
      </trkpt>
      <trkpt lat="50.72284" lon="3.08557">
        <ele>24.1</ele>
      </trkpt>
      <trkpt lat="50.72486" lon="3.08402">
        <ele>24.5</ele>
      </trkpt>
      <trkpt lat="50.72483" lon="3.08335">
        <ele>23.8</ele>
      </trkpt>
      <trkpt lat="50.72582" lon="3.08199">
        <ele>25.9</ele>
      </trkpt>
      <trkpt lat="50.72513" lon="3.08095">
        <ele>22.5</ele>
      </trkpt>
      <trkpt lat="50.72311" lon="3.08058">
        <ele>21</ele>
      </trkpt>
      <trkpt lat="50.72222" lon="3.08065">
        <ele>21</ele>
      </trkpt>
      <trkpt lat="50.72147" lon="3.08128">
        <ele>21.5</ele>
      </trkpt>
      <trkpt lat="50.72072" lon="3.08202">
        <ele>21.7</ele>
      </trkpt>
      <trkpt lat="50.71994" lon="3.08207">
        <ele>20.1</ele>
      </trkpt>
      <trkpt lat="50.71913" lon="3.08201">
        <ele>21</ele>
      </trkpt>
      <trkpt lat="50.71857" lon="3.08218">
        <ele>21.7</ele>
      </trkpt>
    </trkseg>
  </trk>
</gpx>